<?xml version="1.0" encoding="UTF-8" standalone="no" ?>
<gpx xmlns="http://www.topografix.com/GPX/1/1" xmlns:xsi="http://www.w3.org/2001/XMLSchema-instance" xsi:schemaLocation="http://www.topografix.com/GPX/1/1 http://www.topografix.com/GPX/1/1/gpx.xsd" version="1.1" creator="VisuGPX - https://www.visugpx.com">
  <metadata>
    <name>Tour du Pic de Madamète</name>
    <desc><![CDATA[Au départ de tournaboup, Hourquette d'Aubert Col de Madamète, Pic de Madamète et col de Tracens]]></desc>
  </metadata>
  <wpt lat="42.90349" lon="0.10257">
    <ele>1458.55</ele>
    <name><![CDATA[0000016]]></name>
    <type><![CDATA[Point de départ]]></type>
  </wpt>
  <wpt lat="42.9035" lon="0.10237">
    <ele>1465.61</ele>
    <name><![CDATA[0000017]]></name>
    <desc><![CDATA[<p><br /><h3>Nom: Segment: 1</h3><br />Heure de départ: 02/27/2018 08:19<br/>Heure d'arrivée: 02/27/2018 16:50<br/>Distance: 17,6km (08:30)<br/>Temps déplacement: 03:57<br/>Vitesse moyenne: 2,07 km/h<br/>Vitesse moyenne mouv.: 4,41 km/h<br/>Vitesse Max.: 29,54 km/h<br/>Altitude minimale: 1446 m<br/>Altitude maximale: 2660 m<br/>Vitesse de montée: 214,9 m/h<br/>Vitesse de descente: -741,9 m/h<br/>Gain d'altitude: 1419 m<br/>Perte d'altitude: -1412 m<br/>Temps de montée: 06:36<br/>Temps de descente: 01:54<br/></p>]]></desc>
    <type><![CDATA[Point d'arrivée]]></type>
  </wpt>
  <trk>
    <name><![CDATA[2018-02-27 08:19]]></name>
    <desc><![CDATA[<p>Heure de départ: 02/27/2018 08:19<br/>Heure d'arrivée: 02/27/2018 16:50<br/>Distance: 17,6 km (08:30)<br/>Temps déplacement: 03:57<br/>Vitesse moyenne: 2,07 km/h<br/>Vitesse moyenne mouv.: 4,44 km/h<br/>Vitesse Max.: 29,54 km/h<br/>Altitude minimale: 1446 m<br/>Altitude maximale: 2660 m<br/>Vitesse de montée: 212,5 m/h<br/>Vitesse de descente: -740,2 m/h<br/>Gain d'altitude: 1407 m<br/>Perte d'altitude: -1394 m<br/>Temps de montée: 06:37<br/>Temps de descente: 01:53<br/></p><hr align="center" width="480" style="height: 2px; width: 517px"/>]]></desc>
    <trkseg>
      <trkpt lat="42.90349" lon="0.10257">
        <ele>1458.55</ele>
        <time>2018-02-27T07:19:34Z</time>
      </trkpt>
      <trkpt lat="42.90366" lon="0.10249">
        <ele>1449.83</ele>
        <time>2018-02-27T07:20:07Z</time>
      </trkpt>
      <trkpt lat="42.90384" lon="0.10242">
        <ele>1448.52</ele>
        <time>2018-02-27T07:20:21Z</time>
      </trkpt>
      <trkpt lat="42.90401" lon="0.10234">
        <ele>1446.52</ele>
        <time>2018-02-27T07:20:37Z</time>
      </trkpt>
      <trkpt lat="42.90385" lon="0.10247">
        <ele>1452.4</ele>
        <time>2018-02-27T07:21:34Z</time>
      </trkpt>
      <trkpt lat="42.90367" lon="0.10253">
        <ele>1455.51</ele>
        <time>2018-02-27T07:21:45Z</time>
      </trkpt>
      <trkpt lat="42.9035" lon="0.10263">
        <ele>1459.42</ele>
        <time>2018-02-27T07:21:59Z</time>
      </trkpt>
      <trkpt lat="42.90338" lon="0.10282">
        <ele>1467.4</ele>
        <time>2018-02-27T07:25:44Z</time>
      </trkpt>
      <trkpt lat="42.9034" lon="0.10307">
        <ele>1473.82</ele>
        <time>2018-02-27T07:30:41Z</time>
      </trkpt>
      <trkpt lat="42.9033" lon="0.10329">
        <ele>1470.52</ele>
        <time>2018-02-27T07:31:00Z</time>
      </trkpt>
      <trkpt lat="42.90316" lon="0.10344">
        <ele>1468.44</ele>
        <time>2018-02-27T07:32:49Z</time>
      </trkpt>
      <trkpt lat="42.90298" lon="0.10353">
        <ele>1468.52</ele>
        <time>2018-02-27T07:33:08Z</time>
      </trkpt>
      <trkpt lat="42.9028" lon="0.10357">
        <ele>1468.59</ele>
        <time>2018-02-27T07:33:26Z</time>
      </trkpt>
      <trkpt lat="42.90262" lon="0.10359">
        <ele>1469.82</ele>
        <time>2018-02-27T07:33:45Z</time>
      </trkpt>
      <trkpt lat="42.90244" lon="0.10364">
        <ele>1471.53</ele>
        <time>2018-02-27T07:34:03Z</time>
      </trkpt>
      <trkpt lat="42.90227" lon="0.10376">
        <ele>1472.46</ele>
        <time>2018-02-27T07:34:24Z</time>
      </trkpt>
      <trkpt lat="42.90211" lon="0.10387">
        <ele>1474.5</ele>
        <time>2018-02-27T07:34:46Z</time>
      </trkpt>
      <trkpt lat="42.90195" lon="0.10398">
        <ele>1481.21</ele>
        <time>2018-02-27T07:35:10Z</time>
      </trkpt>
      <trkpt lat="42.90179" lon="0.10413">
        <ele>1487.49</ele>
        <time>2018-02-27T07:35:32Z</time>
      </trkpt>
      <trkpt lat="42.90166" lon="0.10431">
        <ele>1488.52</ele>
        <time>2018-02-27T07:35:55Z</time>
      </trkpt>
      <trkpt lat="42.90153" lon="0.10447">
        <ele>1489.53</ele>
        <time>2018-02-27T07:36:13Z</time>
      </trkpt>
      <trkpt lat="42.90139" lon="0.10464">
        <ele>1491.25</ele>
        <time>2018-02-27T07:36:34Z</time>
      </trkpt>
      <trkpt lat="42.9012" lon="0.10469">
        <ele>1491.29</ele>
        <time>2018-02-27T07:36:54Z</time>
      </trkpt>
      <trkpt lat="42.90104" lon="0.10479">
        <ele>1489.52</ele>
        <time>2018-02-27T07:37:17Z</time>
      </trkpt>
      <trkpt lat="42.9009" lon="0.10495">
        <ele>1488.52</ele>
        <time>2018-02-27T07:37:38Z</time>
      </trkpt>
      <trkpt lat="42.90072" lon="0.10493">
        <ele>1491.52</ele>
        <time>2018-02-27T07:38:07Z</time>
      </trkpt>
      <trkpt lat="42.90055" lon="0.10504">
        <ele>1497.52</ele>
        <time>2018-02-27T07:38:32Z</time>
      </trkpt>
      <trkpt lat="42.9004" lon="0.10518">
        <ele>1502.71</ele>
        <time>2018-02-27T07:38:57Z</time>
      </trkpt>
      <trkpt lat="42.90023" lon="0.10528">
        <ele>1503.49</ele>
        <time>2018-02-27T07:39:23Z</time>
      </trkpt>
      <trkpt lat="42.90006" lon="0.10535">
        <ele>1503.84</ele>
        <time>2018-02-27T07:39:49Z</time>
      </trkpt>
      <trkpt lat="42.89988" lon="0.10539">
        <ele>1503.22</ele>
        <time>2018-02-27T07:40:12Z</time>
      </trkpt>
      <trkpt lat="42.89972" lon="0.10554">
        <ele>1506.22</ele>
        <time>2018-02-27T07:40:36Z</time>
      </trkpt>
      <trkpt lat="42.8997" lon="0.10579">
        <ele>1506.52</ele>
        <time>2018-02-27T07:41:04Z</time>
      </trkpt>
      <trkpt lat="42.89958" lon="0.10598">
        <ele>1504.8</ele>
        <time>2018-02-27T07:41:25Z</time>
      </trkpt>
      <trkpt lat="42.89947" lon="0.10618">
        <ele>1511.48</ele>
        <time>2018-02-27T07:41:52Z</time>
      </trkpt>
      <trkpt lat="42.89929" lon="0.10623">
        <ele>1518.52</ele>
        <time>2018-02-27T07:42:20Z</time>
      </trkpt>
      <trkpt lat="42.89911" lon="0.10627">
        <ele>1520.6</ele>
        <time>2018-02-27T07:42:46Z</time>
      </trkpt>
      <trkpt lat="42.89894" lon="0.10637">
        <ele>1523.61</ele>
        <time>2018-02-27T07:43:18Z</time>
      </trkpt>
      <trkpt lat="42.89876" lon="0.10637">
        <ele>1526.52</ele>
        <time>2018-02-27T07:44:03Z</time>
      </trkpt>
      <trkpt lat="42.89858" lon="0.10638">
        <ele>1532.44</ele>
        <time>2018-02-27T07:44:30Z</time>
      </trkpt>
      <trkpt lat="42.89839" lon="0.10642">
        <ele>1532.31</ele>
        <time>2018-02-27T07:44:55Z</time>
      </trkpt>
      <trkpt lat="42.89822" lon="0.10653">
        <ele>1533.83</ele>
        <time>2018-02-27T07:45:20Z</time>
      </trkpt>
      <trkpt lat="42.89806" lon="0.10666">
        <ele>1536.22</ele>
        <time>2018-02-27T07:45:41Z</time>
      </trkpt>
      <trkpt lat="42.8979" lon="0.10679">
        <ele>1542.52</ele>
        <time>2018-02-27T07:46:04Z</time>
      </trkpt>
      <trkpt lat="42.89777" lon="0.10696">
        <ele>1542.56</ele>
        <time>2018-02-27T07:46:23Z</time>
      </trkpt>
      <trkpt lat="42.89763" lon="0.10712">
        <ele>1542.43</ele>
        <time>2018-02-27T07:46:52Z</time>
      </trkpt>
      <trkpt lat="42.89747" lon="0.10727">
        <ele>1547.58</ele>
        <time>2018-02-27T07:47:10Z</time>
      </trkpt>
      <trkpt lat="42.89731" lon="0.10738">
        <ele>1551.49</ele>
        <time>2018-02-27T07:47:35Z</time>
      </trkpt>
      <trkpt lat="42.89712" lon="0.10739">
        <ele>1553.6</ele>
        <time>2018-02-27T07:48:02Z</time>
      </trkpt>
      <trkpt lat="42.89694" lon="0.10745">
        <ele>1557.28</ele>
        <time>2018-02-27T07:48:24Z</time>
      </trkpt>
      <trkpt lat="42.89676" lon="0.10745">
        <ele>1555.31</ele>
        <time>2018-02-27T07:48:44Z</time>
      </trkpt>
      <trkpt lat="42.89659" lon="0.10752">
        <ele>1558.58</ele>
        <time>2018-02-27T07:49:19Z</time>
      </trkpt>
      <trkpt lat="42.8964" lon="0.10755">
        <ele>1566.1</ele>
        <time>2018-02-27T07:49:43Z</time>
      </trkpt>
      <trkpt lat="42.89623" lon="0.10765">
        <ele>1569.52</ele>
        <time>2018-02-27T07:50:17Z</time>
      </trkpt>
      <trkpt lat="42.89606" lon="0.10773">
        <ele>1574.51</ele>
        <time>2018-02-27T07:50:39Z</time>
      </trkpt>
      <trkpt lat="42.89587" lon="0.10773">
        <ele>1576.5</ele>
        <time>2018-02-27T07:51:04Z</time>
      </trkpt>
      <trkpt lat="42.89568" lon="0.10774">
        <ele>1574.88</ele>
        <time>2018-02-27T07:51:27Z</time>
      </trkpt>
      <trkpt lat="42.8955" lon="0.10771">
        <ele>1578.81</ele>
        <time>2018-02-27T07:51:54Z</time>
      </trkpt>
      <trkpt lat="42.89533" lon="0.10765">
        <ele>1582.43</ele>
        <time>2018-02-27T07:52:21Z</time>
      </trkpt>
      <trkpt lat="42.89514" lon="0.10765">
        <ele>1585.49</ele>
        <time>2018-02-27T07:52:47Z</time>
      </trkpt>
      <trkpt lat="42.89495" lon="0.10762">
        <ele>1592.52</ele>
        <time>2018-02-27T07:53:19Z</time>
      </trkpt>
      <trkpt lat="42.89477" lon="0.10759">
        <ele>1590.44</ele>
        <time>2018-02-27T07:53:44Z</time>
      </trkpt>
      <trkpt lat="42.89459" lon="0.10753">
        <ele>1595.83</ele>
        <time>2018-02-27T07:54:10Z</time>
      </trkpt>
      <trkpt lat="42.89441" lon="0.10758">
        <ele>1594.46</ele>
        <time>2018-02-27T07:54:32Z</time>
      </trkpt>
      <trkpt lat="42.89422" lon="0.10756">
        <ele>1594.44</ele>
        <time>2018-02-27T07:54:59Z</time>
      </trkpt>
      <trkpt lat="42.89404" lon="0.10764">
        <ele>1596.52</ele>
        <time>2018-02-27T07:55:25Z</time>
      </trkpt>
      <trkpt lat="42.89386" lon="0.1076">
        <ele>1599.49</ele>
        <time>2018-02-27T07:55:51Z</time>
      </trkpt>
      <trkpt lat="42.89368" lon="0.10761">
        <ele>1606.21</ele>
        <time>2018-02-27T07:56:12Z</time>
      </trkpt>
      <trkpt lat="42.8935" lon="0.10764">
        <ele>1612.53</ele>
        <time>2018-02-27T07:56:35Z</time>
      </trkpt>
      <trkpt lat="42.89332" lon="0.10761">
        <ele>1608.52</ele>
        <time>2018-02-27T07:57:09Z</time>
      </trkpt>
      <trkpt lat="42.89319" lon="0.10744">
        <ele>1613.49</ele>
        <time>2018-02-27T07:57:32Z</time>
      </trkpt>
      <trkpt lat="42.893" lon="0.10739">
        <ele>1613.52</ele>
        <time>2018-02-27T07:57:57Z</time>
      </trkpt>
      <trkpt lat="42.89282" lon="0.10734">
        <ele>1613.22</ele>
        <time>2018-02-27T07:58:23Z</time>
      </trkpt>
      <trkpt lat="42.89264" lon="0.10732">
        <ele>1615.43</ele>
        <time>2018-02-27T07:58:45Z</time>
      </trkpt>
      <trkpt lat="42.89245" lon="0.10727">
        <ele>1619.43</ele>
        <time>2018-02-27T07:59:08Z</time>
      </trkpt>
      <trkpt lat="42.89227" lon="0.10727">
        <ele>1619.22</ele>
        <time>2018-02-27T07:59:33Z</time>
      </trkpt>
      <trkpt lat="42.89209" lon="0.10723">
        <ele>1627.52</ele>
        <time>2018-02-27T07:59:58Z</time>
      </trkpt>
      <trkpt lat="42.8919" lon="0.10725">
        <ele>1628.22</ele>
        <time>2018-02-27T08:00:20Z</time>
      </trkpt>
      <trkpt lat="42.89173" lon="0.10717">
        <ele>1627.51</ele>
        <time>2018-02-27T08:00:42Z</time>
      </trkpt>
      <trkpt lat="42.89155" lon="0.10715">
        <ele>1631.51</ele>
        <time>2018-02-27T08:01:03Z</time>
      </trkpt>
      <trkpt lat="42.89137" lon="0.10724">
        <ele>1635.58</ele>
        <time>2018-02-27T08:01:24Z</time>
      </trkpt>
      <trkpt lat="42.89119" lon="0.1073">
        <ele>1640.13</ele>
        <time>2018-02-27T08:01:46Z</time>
      </trkpt>
      <trkpt lat="42.89101" lon="0.10736">
        <ele>1640.52</ele>
        <time>2018-02-27T08:02:11Z</time>
      </trkpt>
      <trkpt lat="42.89083" lon="0.1073">
        <ele>1641.73</ele>
        <time>2018-02-27T08:02:32Z</time>
      </trkpt>
      <trkpt lat="42.89065" lon="0.10736">
        <ele>1642.43</ele>
        <time>2018-02-27T08:02:53Z</time>
      </trkpt>
      <trkpt lat="42.8905" lon="0.1075">
        <ele>1644.49</ele>
        <time>2018-02-27T08:03:17Z</time>
      </trkpt>
      <trkpt lat="42.89032" lon="0.10759">
        <ele>1645.22</ele>
        <time>2018-02-27T08:03:38Z</time>
      </trkpt>
      <trkpt lat="42.89013" lon="0.1076">
        <ele>1649.12</ele>
        <time>2018-02-27T08:03:59Z</time>
      </trkpt>
      <trkpt lat="42.88994" lon="0.1076">
        <ele>1651.43</ele>
        <time>2018-02-27T08:04:22Z</time>
      </trkpt>
      <trkpt lat="42.88977" lon="0.10752">
        <ele>1652.44</ele>
        <time>2018-02-27T08:04:43Z</time>
      </trkpt>
      <trkpt lat="42.88958" lon="0.10753">
        <ele>1651.52</ele>
        <time>2018-02-27T08:05:04Z</time>
      </trkpt>
      <trkpt lat="42.88939" lon="0.10756">
        <ele>1654.49</ele>
        <time>2018-02-27T08:05:25Z</time>
      </trkpt>
      <trkpt lat="42.88925" lon="0.10771">
        <ele>1656.5</ele>
        <time>2018-02-27T08:05:47Z</time>
      </trkpt>
      <trkpt lat="42.88909" lon="0.10781">
        <ele>1656.55</ele>
        <time>2018-02-27T08:06:07Z</time>
      </trkpt>
      <trkpt lat="42.88894" lon="0.10797">
        <ele>1656.5</ele>
        <time>2018-02-27T08:06:27Z</time>
      </trkpt>
      <trkpt lat="42.88876" lon="0.10802">
        <ele>1659.82</ele>
        <time>2018-02-27T08:06:48Z</time>
      </trkpt>
      <trkpt lat="42.88858" lon="0.10807">
        <ele>1660.52</ele>
        <time>2018-02-27T08:07:09Z</time>
      </trkpt>
      <trkpt lat="42.8884" lon="0.10814">
        <ele>1664.25</ele>
        <time>2018-02-27T08:07:31Z</time>
      </trkpt>
      <trkpt lat="42.88823" lon="0.10825">
        <ele>1664.52</ele>
        <time>2018-02-27T08:07:51Z</time>
      </trkpt>
      <trkpt lat="42.88806" lon="0.10831">
        <ele>1665.55</ele>
        <time>2018-02-27T08:08:14Z</time>
      </trkpt>
      <trkpt lat="42.88788" lon="0.10839">
        <ele>1670.22</ele>
        <time>2018-02-27T08:08:34Z</time>
      </trkpt>
      <trkpt lat="42.88771" lon="0.10845">
        <ele>1672.22</ele>
        <time>2018-02-27T08:08:56Z</time>
      </trkpt>
      <trkpt lat="42.88753" lon="0.10844">
        <ele>1672.54</ele>
        <time>2018-02-27T08:09:22Z</time>
      </trkpt>
      <trkpt lat="42.88734" lon="0.10844">
        <ele>1677.15</ele>
        <time>2018-02-27T08:10:12Z</time>
      </trkpt>
      <trkpt lat="42.88716" lon="0.10844">
        <ele>1679.55</ele>
        <time>2018-02-27T08:10:39Z</time>
      </trkpt>
      <trkpt lat="42.88697" lon="0.10847">
        <ele>1681.52</ele>
        <time>2018-02-27T08:11:03Z</time>
      </trkpt>
      <trkpt lat="42.88678" lon="0.10853">
        <ele>1681.46</ele>
        <time>2018-02-27T08:11:26Z</time>
      </trkpt>
      <trkpt lat="42.88668" lon="0.10875">
        <ele>1685.52</ele>
        <time>2018-02-27T08:12:13Z</time>
      </trkpt>
      <trkpt lat="42.88652" lon="0.10887">
        <ele>1691.49</ele>
        <time>2018-02-27T08:12:38Z</time>
      </trkpt>
      <trkpt lat="42.88634" lon="0.10893">
        <ele>1695.22</ele>
        <time>2018-02-27T08:13:05Z</time>
      </trkpt>
      <trkpt lat="42.88618" lon="0.10906">
        <ele>1698.52</ele>
        <time>2018-02-27T08:13:29Z</time>
      </trkpt>
      <trkpt lat="42.88601" lon="0.10914">
        <ele>1702.51</ele>
        <time>2018-02-27T08:13:53Z</time>
      </trkpt>
      <trkpt lat="42.88584" lon="0.10925">
        <ele>1702.82</ele>
        <time>2018-02-27T08:14:17Z</time>
      </trkpt>
      <trkpt lat="42.88567" lon="0.10935">
        <ele>1706.22</ele>
        <time>2018-02-27T08:14:42Z</time>
      </trkpt>
      <trkpt lat="42.88551" lon="0.10945">
        <ele>1721.22</ele>
        <time>2018-02-27T08:34:38Z</time>
      </trkpt>
      <trkpt lat="42.88537" lon="0.10961">
        <ele>1721.22</ele>
        <time>2018-02-27T08:35:04Z</time>
      </trkpt>
      <trkpt lat="42.88522" lon="0.10978">
        <ele>1725.46</ele>
        <time>2018-02-27T08:35:23Z</time>
      </trkpt>
      <trkpt lat="42.88508" lon="0.10996">
        <ele>1730.19</ele>
        <time>2018-02-27T08:35:45Z</time>
      </trkpt>
      <trkpt lat="42.88494" lon="0.11012">
        <ele>1734.12</ele>
        <time>2018-02-27T08:36:04Z</time>
      </trkpt>
      <trkpt lat="42.88481" lon="0.1103">
        <ele>1733.7</ele>
        <time>2018-02-27T08:36:26Z</time>
      </trkpt>
      <trkpt lat="42.88469" lon="0.11049">
        <ele>1735.52</ele>
        <time>2018-02-27T08:36:47Z</time>
      </trkpt>
      <trkpt lat="42.88456" lon="0.11067">
        <ele>1737.49</ele>
        <time>2018-02-27T08:37:09Z</time>
      </trkpt>
      <trkpt lat="42.88442" lon="0.11083">
        <ele>1738.52</ele>
        <time>2018-02-27T08:37:27Z</time>
      </trkpt>
      <trkpt lat="42.88425" lon="0.11097">
        <ele>1740.41</ele>
        <time>2018-02-27T08:37:44Z</time>
      </trkpt>
      <trkpt lat="42.88409" lon="0.11109">
        <ele>1741.52</ele>
        <time>2018-02-27T08:38:02Z</time>
      </trkpt>
      <trkpt lat="42.88397" lon="0.11128">
        <ele>1742.22</ele>
        <time>2018-02-27T08:38:21Z</time>
      </trkpt>
      <trkpt lat="42.88385" lon="0.11146">
        <ele>1740.5</ele>
        <time>2018-02-27T08:38:44Z</time>
      </trkpt>
      <trkpt lat="42.88372" lon="0.11166">
        <ele>1744.22</ele>
        <time>2018-02-27T08:39:02Z</time>
      </trkpt>
      <trkpt lat="42.88354" lon="0.11174">
        <ele>1745.5</ele>
        <time>2018-02-27T08:39:23Z</time>
      </trkpt>
      <trkpt lat="42.88336" lon="0.1118">
        <ele>1746.52</ele>
        <time>2018-02-27T08:39:43Z</time>
      </trkpt>
      <trkpt lat="42.88319" lon="0.11186">
        <ele>1748.81</ele>
        <time>2018-02-27T08:40:05Z</time>
      </trkpt>
      <trkpt lat="42.88301" lon="0.11189">
        <ele>1750.59</ele>
        <time>2018-02-27T08:40:24Z</time>
      </trkpt>
      <trkpt lat="42.88283" lon="0.11183">
        <ele>1752.28</ele>
        <time>2018-02-27T08:40:42Z</time>
      </trkpt>
      <trkpt lat="42.88264" lon="0.11178">
        <ele>1754.52</ele>
        <time>2018-02-27T08:41:03Z</time>
      </trkpt>
      <trkpt lat="42.88247" lon="0.1117">
        <ele>1755.43</ele>
        <time>2018-02-27T08:41:24Z</time>
      </trkpt>
      <trkpt lat="42.88235" lon="0.1115">
        <ele>1755.22</ele>
        <time>2018-02-27T08:42:09Z</time>
      </trkpt>
      <trkpt lat="42.88217" lon="0.11152">
        <ele>1761.22</ele>
        <time>2018-02-27T08:42:46Z</time>
      </trkpt>
      <trkpt lat="42.88201" lon="0.11164">
        <ele>1767.52</ele>
        <time>2018-02-27T08:43:09Z</time>
      </trkpt>
      <trkpt lat="42.88183" lon="0.11169">
        <ele>1772.22</ele>
        <time>2018-02-27T08:43:43Z</time>
      </trkpt>
      <trkpt lat="42.88178" lon="0.11145">
        <ele>1783.47</ele>
        <time>2018-02-27T08:44:37Z</time>
      </trkpt>
      <trkpt lat="42.88183" lon="0.1112">
        <ele>1783.25</ele>
        <time>2018-02-27T08:45:09Z</time>
      </trkpt>
      <trkpt lat="42.88181" lon="0.11095">
        <ele>1791.22</ele>
        <time>2018-02-27T08:45:40Z</time>
      </trkpt>
      <trkpt lat="42.88164" lon="0.11106">
        <ele>1810.51</ele>
        <time>2018-02-27T08:46:29Z</time>
      </trkpt>
      <trkpt lat="42.8815" lon="0.11121">
        <ele>1812.51</ele>
        <time>2018-02-27T08:46:53Z</time>
      </trkpt>
      <trkpt lat="42.88154" lon="0.11097">
        <ele>1811.31</ele>
        <time>2018-02-27T08:47:21Z</time>
      </trkpt>
      <trkpt lat="42.88136" lon="0.1109">
        <ele>1822.52</ele>
        <time>2018-02-27T08:48:20Z</time>
      </trkpt>
      <trkpt lat="42.88126" lon="0.11111">
        <ele>1834.42</ele>
        <time>2018-02-27T08:48:55Z</time>
      </trkpt>
      <trkpt lat="42.88109" lon="0.1112">
        <ele>1832.22</ele>
        <time>2018-02-27T08:49:26Z</time>
      </trkpt>
      <trkpt lat="42.88096" lon="0.11102">
        <ele>1833.52</ele>
        <time>2018-02-27T08:50:05Z</time>
      </trkpt>
      <trkpt lat="42.88078" lon="0.11107">
        <ele>1852.52</ele>
        <time>2018-02-27T08:51:05Z</time>
      </trkpt>
      <trkpt lat="42.88063" lon="0.1112">
        <ele>1855.6</ele>
        <time>2018-02-27T08:51:33Z</time>
      </trkpt>
      <trkpt lat="42.88065" lon="0.11095">
        <ele>1855.52</ele>
        <time>2018-02-27T08:52:05Z</time>
      </trkpt>
      <trkpt lat="42.88047" lon="0.11102">
        <ele>1862.19</ele>
        <time>2018-02-27T08:52:37Z</time>
      </trkpt>
      <trkpt lat="42.88032" lon="0.11116">
        <ele>1868.7</ele>
        <time>2018-02-27T08:53:08Z</time>
      </trkpt>
      <trkpt lat="42.88014" lon="0.1112">
        <ele>1869.55</ele>
        <time>2018-02-27T08:53:37Z</time>
      </trkpt>
      <trkpt lat="42.88" lon="0.11105">
        <ele>1871.61</ele>
        <time>2018-02-27T08:54:12Z</time>
      </trkpt>
      <trkpt lat="42.87983" lon="0.11095">
        <ele>1884.1</ele>
        <time>2018-02-27T08:55:04Z</time>
      </trkpt>
      <trkpt lat="42.8798" lon="0.11071">
        <ele>1887.52</ele>
        <time>2018-02-27T08:55:45Z</time>
      </trkpt>
      <trkpt lat="42.87966" lon="0.11088">
        <ele>1896.2</ele>
        <time>2018-02-27T08:56:14Z</time>
      </trkpt>
      <trkpt lat="42.87968" lon="0.11112">
        <ele>1904.13</ele>
        <time>2018-02-27T08:56:43Z</time>
      </trkpt>
      <trkpt lat="42.87959" lon="0.11133">
        <ele>1907.52</ele>
        <time>2018-02-27T08:57:09Z</time>
      </trkpt>
      <trkpt lat="42.87949" lon="0.11112">
        <ele>1905.4</ele>
        <time>2018-02-27T08:57:54Z</time>
      </trkpt>
      <trkpt lat="42.87931" lon="0.11115">
        <ele>1906.43</ele>
        <time>2018-02-27T08:58:23Z</time>
      </trkpt>
      <trkpt lat="42.87914" lon="0.11124">
        <ele>1913.13</ele>
        <time>2018-02-27T08:58:55Z</time>
      </trkpt>
      <trkpt lat="42.87903" lon="0.11144">
        <ele>1924.22</ele>
        <time>2018-02-27T08:59:39Z</time>
      </trkpt>
      <trkpt lat="42.87887" lon="0.11158">
        <ele>1925.22</ele>
        <time>2018-02-27T09:00:05Z</time>
      </trkpt>
      <trkpt lat="42.87875" lon="0.11177">
        <ele>1934.43</ele>
        <time>2018-02-27T09:00:35Z</time>
      </trkpt>
      <trkpt lat="42.87861" lon="0.11162">
        <ele>1933.55</ele>
        <time>2018-02-27T09:01:34Z</time>
      </trkpt>
      <trkpt lat="42.87846" lon="0.11176">
        <ele>1947.25</ele>
        <time>2018-02-27T09:02:18Z</time>
      </trkpt>
      <trkpt lat="42.87847" lon="0.11151">
        <ele>1945.5</ele>
        <time>2018-02-27T09:03:35Z</time>
      </trkpt>
      <trkpt lat="42.87831" lon="0.11164">
        <ele>1963.51</ele>
        <time>2018-02-27T09:04:37Z</time>
      </trkpt>
      <trkpt lat="42.87816" lon="0.1115">
        <ele>1967.22</ele>
        <time>2018-02-27T09:05:37Z</time>
      </trkpt>
      <trkpt lat="42.87799" lon="0.11159">
        <ele>1984.1</ele>
        <time>2018-02-27T09:06:42Z</time>
      </trkpt>
      <trkpt lat="42.87794" lon="0.11135">
        <ele>1988.52</ele>
        <time>2018-02-27T09:07:31Z</time>
      </trkpt>
      <trkpt lat="42.87777" lon="0.11146">
        <ele>2002.34</ele>
        <time>2018-02-27T09:08:36Z</time>
      </trkpt>
      <trkpt lat="42.87759" lon="0.11146">
        <ele>2011.56</ele>
        <time>2018-02-27T09:10:01Z</time>
      </trkpt>
      <trkpt lat="42.87752" lon="0.11169">
        <ele>2025.52</ele>
        <time>2018-02-27T09:11:17Z</time>
      </trkpt>
      <trkpt lat="42.87744" lon="0.11192">
        <ele>2032.61</ele>
        <time>2018-02-27T09:22:34Z</time>
      </trkpt>
      <trkpt lat="42.87736" lon="0.11215">
        <ele>2035.46</ele>
        <time>2018-02-27T09:22:54Z</time>
      </trkpt>
      <trkpt lat="42.87722" lon="0.11233">
        <ele>2037.52</ele>
        <time>2018-02-27T09:24:00Z</time>
      </trkpt>
      <trkpt lat="42.87704" lon="0.11236">
        <ele>2043.21</ele>
        <time>2018-02-27T09:24:27Z</time>
      </trkpt>
      <trkpt lat="42.87687" lon="0.11244">
        <ele>2046.43</ele>
        <time>2018-02-27T09:29:51Z</time>
      </trkpt>
      <trkpt lat="42.87669" lon="0.11243">
        <ele>2042.55</ele>
        <time>2018-02-27T09:30:19Z</time>
      </trkpt>
      <trkpt lat="42.87652" lon="0.11238">
        <ele>2040.25</ele>
        <time>2018-02-27T09:30:45Z</time>
      </trkpt>
      <trkpt lat="42.87635" lon="0.11246">
        <ele>2042.42</ele>
        <time>2018-02-27T09:31:08Z</time>
      </trkpt>
      <trkpt lat="42.87618" lon="0.11258">
        <ele>2052.42</ele>
        <time>2018-02-27T09:31:29Z</time>
      </trkpt>
      <trkpt lat="42.87604" lon="0.11273">
        <ele>2055.42</ele>
        <time>2018-02-27T09:31:52Z</time>
      </trkpt>
      <trkpt lat="42.87587" lon="0.11283">
        <ele>2057.52</ele>
        <time>2018-02-27T09:32:23Z</time>
      </trkpt>
      <trkpt lat="42.8757" lon="0.11294">
        <ele>2060.61</ele>
        <time>2018-02-27T09:32:53Z</time>
      </trkpt>
      <trkpt lat="42.87553" lon="0.11304">
        <ele>2062.22</ele>
        <time>2018-02-27T09:33:19Z</time>
      </trkpt>
      <trkpt lat="42.87538" lon="0.11319">
        <ele>2065.52</ele>
        <time>2018-02-27T09:33:55Z</time>
      </trkpt>
      <trkpt lat="42.87523" lon="0.11334">
        <ele>2066.52</ele>
        <time>2018-02-27T09:34:18Z</time>
      </trkpt>
      <trkpt lat="42.87507" lon="0.11346">
        <ele>2069.22</ele>
        <time>2018-02-27T09:34:48Z</time>
      </trkpt>
      <trkpt lat="42.87494" lon="0.11363">
        <ele>2073.49</ele>
        <time>2018-02-27T09:35:16Z</time>
      </trkpt>
      <trkpt lat="42.87481" lon="0.11381">
        <ele>2074.5</ele>
        <time>2018-02-27T09:35:40Z</time>
      </trkpt>
      <trkpt lat="42.87465" lon="0.11393">
        <ele>2076.41</ele>
        <time>2018-02-27T09:36:02Z</time>
      </trkpt>
      <trkpt lat="42.87447" lon="0.11404">
        <ele>2076.51</ele>
        <time>2018-02-27T09:36:24Z</time>
      </trkpt>
      <trkpt lat="42.87432" lon="0.11416">
        <ele>2080.51</ele>
        <time>2018-02-27T09:36:45Z</time>
      </trkpt>
      <trkpt lat="42.87415" lon="0.11426">
        <ele>2079.53</ele>
        <time>2018-02-27T09:37:05Z</time>
      </trkpt>
      <trkpt lat="42.87397" lon="0.11432">
        <ele>2079.22</ele>
        <time>2018-02-27T09:37:30Z</time>
      </trkpt>
      <trkpt lat="42.87379" lon="0.11435">
        <ele>2079.51</ele>
        <time>2018-02-27T09:37:51Z</time>
      </trkpt>
      <trkpt lat="42.87361" lon="0.11442">
        <ele>2080.52</ele>
        <time>2018-02-27T09:38:14Z</time>
      </trkpt>
      <trkpt lat="42.87344" lon="0.11451">
        <ele>2080.8</ele>
        <time>2018-02-27T09:38:36Z</time>
      </trkpt>
      <trkpt lat="42.87326" lon="0.11453">
        <ele>2080.43</ele>
        <time>2018-02-27T09:38:59Z</time>
      </trkpt>
      <trkpt lat="42.87308" lon="0.1146">
        <ele>2083.21</ele>
        <time>2018-02-27T09:39:21Z</time>
      </trkpt>
      <trkpt lat="42.87289" lon="0.11467">
        <ele>2085.52</ele>
        <time>2018-02-27T09:39:41Z</time>
      </trkpt>
      <trkpt lat="42.87272" lon="0.11472">
        <ele>2088.52</ele>
        <time>2018-02-27T09:40:00Z</time>
      </trkpt>
      <trkpt lat="42.87254" lon="0.11473">
        <ele>2089.53</ele>
        <time>2018-02-27T09:41:18Z</time>
      </trkpt>
      <trkpt lat="42.87236" lon="0.1148">
        <ele>2085.52</ele>
        <time>2018-02-27T09:41:48Z</time>
      </trkpt>
      <trkpt lat="42.87217" lon="0.11482">
        <ele>2088.52</ele>
        <time>2018-02-27T09:42:23Z</time>
      </trkpt>
      <trkpt lat="42.87198" lon="0.11481">
        <ele>2090.5</ele>
        <time>2018-02-27T09:42:52Z</time>
      </trkpt>
      <trkpt lat="42.8718" lon="0.1148">
        <ele>2096.43</ele>
        <time>2018-02-27T09:43:22Z</time>
      </trkpt>
      <trkpt lat="42.87163" lon="0.11475">
        <ele>2101.52</ele>
        <time>2018-02-27T09:43:54Z</time>
      </trkpt>
      <trkpt lat="42.87145" lon="0.11472">
        <ele>2105.82</ele>
        <time>2018-02-27T09:44:27Z</time>
      </trkpt>
      <trkpt lat="42.87133" lon="0.11491">
        <ele>2120.47</ele>
        <time>2018-02-27T09:45:49Z</time>
      </trkpt>
      <trkpt lat="42.87115" lon="0.11488">
        <ele>2124.51</ele>
        <time>2018-02-27T09:48:23Z</time>
      </trkpt>
      <trkpt lat="42.87098" lon="0.11479">
        <ele>2121.52</ele>
        <time>2018-02-27T09:48:43Z</time>
      </trkpt>
      <trkpt lat="42.87081" lon="0.11468">
        <ele>2119.61</ele>
        <time>2018-02-27T09:49:05Z</time>
      </trkpt>
      <trkpt lat="42.87071" lon="0.11447">
        <ele>2121.49</ele>
        <time>2018-02-27T09:49:32Z</time>
      </trkpt>
      <trkpt lat="42.87057" lon="0.11431">
        <ele>2124.52</ele>
        <time>2018-02-27T09:49:57Z</time>
      </trkpt>
      <trkpt lat="42.8704" lon="0.11418">
        <ele>2127.24</ele>
        <time>2018-02-27T09:50:26Z</time>
      </trkpt>
      <trkpt lat="42.87023" lon="0.1141">
        <ele>2126.73</ele>
        <time>2018-02-27T09:50:52Z</time>
      </trkpt>
      <trkpt lat="42.87005" lon="0.11414">
        <ele>2126.44</ele>
        <time>2018-02-27T09:51:16Z</time>
      </trkpt>
      <trkpt lat="42.86989" lon="0.11424">
        <ele>2125.46</ele>
        <time>2018-02-27T09:51:47Z</time>
      </trkpt>
      <trkpt lat="42.86971" lon="0.11433">
        <ele>2125.46</ele>
        <time>2018-02-27T09:52:09Z</time>
      </trkpt>
      <trkpt lat="42.86954" lon="0.11443">
        <ele>2126.52</ele>
        <time>2018-02-27T09:52:35Z</time>
      </trkpt>
      <trkpt lat="42.86936" lon="0.11453">
        <ele>2131.23</ele>
        <time>2018-02-27T09:53:06Z</time>
      </trkpt>
      <trkpt lat="42.8692" lon="0.11467">
        <ele>2137.46</ele>
        <time>2018-02-27T09:53:32Z</time>
      </trkpt>
      <trkpt lat="42.86902" lon="0.11463">
        <ele>2139.53</ele>
        <time>2018-02-27T09:54:04Z</time>
      </trkpt>
      <trkpt lat="42.86884" lon="0.11458">
        <ele>2145.51</ele>
        <time>2018-02-27T09:54:32Z</time>
      </trkpt>
      <trkpt lat="42.86865" lon="0.11453">
        <ele>2150.52</ele>
        <time>2018-02-27T09:55:05Z</time>
      </trkpt>
      <trkpt lat="42.86847" lon="0.11452">
        <ele>2152.52</ele>
        <time>2018-02-27T09:55:34Z</time>
      </trkpt>
      <trkpt lat="42.8683" lon="0.1146">
        <ele>2158.46</ele>
        <time>2018-02-27T09:56:11Z</time>
      </trkpt>
      <trkpt lat="42.86811" lon="0.11465">
        <ele>2164.81</ele>
        <time>2018-02-27T09:56:48Z</time>
      </trkpt>
      <trkpt lat="42.86798" lon="0.11482">
        <ele>2170.45</ele>
        <time>2018-02-27T09:57:18Z</time>
      </trkpt>
      <trkpt lat="42.86787" lon="0.11502">
        <ele>2174.22</ele>
        <time>2018-02-27T09:57:50Z</time>
      </trkpt>
      <trkpt lat="42.86773" lon="0.11519">
        <ele>2175.31</ele>
        <time>2018-02-27T09:58:18Z</time>
      </trkpt>
      <trkpt lat="42.86756" lon="0.11527">
        <ele>2174.5</ele>
        <time>2018-02-27T09:58:47Z</time>
      </trkpt>
      <trkpt lat="42.86739" lon="0.11539">
        <ele>2178.23</ele>
        <time>2018-02-27T09:59:17Z</time>
      </trkpt>
      <trkpt lat="42.86721" lon="0.11543">
        <ele>2180.5</ele>
        <time>2018-02-27T09:59:42Z</time>
      </trkpt>
      <trkpt lat="42.86706" lon="0.11557">
        <ele>2181.5</ele>
        <time>2018-02-27T10:00:08Z</time>
      </trkpt>
      <trkpt lat="42.86693" lon="0.11574">
        <ele>2187.23</ele>
        <time>2018-02-27T10:00:37Z</time>
      </trkpt>
      <trkpt lat="42.86679" lon="0.11591">
        <ele>2192.22</ele>
        <time>2018-02-27T10:01:07Z</time>
      </trkpt>
      <trkpt lat="42.86663" lon="0.11605">
        <ele>2194.22</ele>
        <time>2018-02-27T10:01:37Z</time>
      </trkpt>
      <trkpt lat="42.86646" lon="0.11614">
        <ele>2198.49</ele>
        <time>2018-02-27T10:02:02Z</time>
      </trkpt>
      <trkpt lat="42.86627" lon="0.11611">
        <ele>2203.42</ele>
        <time>2018-02-27T10:02:25Z</time>
      </trkpt>
      <trkpt lat="42.86609" lon="0.11609">
        <ele>2207.19</ele>
        <time>2018-02-27T10:02:51Z</time>
      </trkpt>
      <trkpt lat="42.86591" lon="0.11602">
        <ele>2209.31</ele>
        <time>2018-02-27T10:03:12Z</time>
      </trkpt>
      <trkpt lat="42.86574" lon="0.11595">
        <ele>2208.51</ele>
        <time>2018-02-27T10:03:56Z</time>
      </trkpt>
      <trkpt lat="42.86556" lon="0.11588">
        <ele>2209.58</ele>
        <time>2018-02-27T10:04:20Z</time>
      </trkpt>
      <trkpt lat="42.86537" lon="0.11585">
        <ele>2214.13</ele>
        <time>2018-02-27T10:04:41Z</time>
      </trkpt>
      <trkpt lat="42.86519" lon="0.11578">
        <ele>2220.13</ele>
        <time>2018-02-27T10:04:57Z</time>
      </trkpt>
      <trkpt lat="42.86501" lon="0.11572">
        <ele>2219.82</ele>
        <time>2018-02-27T10:05:15Z</time>
      </trkpt>
      <trkpt lat="42.86483" lon="0.11567">
        <ele>2221.42</ele>
        <time>2018-02-27T10:05:48Z</time>
      </trkpt>
      <trkpt lat="42.86466" lon="0.11562">
        <ele>2227.52</ele>
        <time>2018-02-27T10:06:14Z</time>
      </trkpt>
      <trkpt lat="42.86448" lon="0.11561">
        <ele>2226.52</ele>
        <time>2018-02-27T10:06:33Z</time>
      </trkpt>
      <trkpt lat="42.8643" lon="0.11568">
        <ele>2226.5</ele>
        <time>2018-02-27T10:06:53Z</time>
      </trkpt>
      <trkpt lat="42.86411" lon="0.11574">
        <ele>2230.7</ele>
        <time>2018-02-27T10:07:16Z</time>
      </trkpt>
      <trkpt lat="42.86394" lon="0.11583">
        <ele>2233.49</ele>
        <time>2018-02-27T10:07:40Z</time>
      </trkpt>
      <trkpt lat="42.86376" lon="0.11583">
        <ele>2236.52</ele>
        <time>2018-02-27T10:08:05Z</time>
      </trkpt>
      <trkpt lat="42.86358" lon="0.1158">
        <ele>2238.51</ele>
        <time>2018-02-27T10:08:29Z</time>
      </trkpt>
      <trkpt lat="42.86342" lon="0.11567">
        <ele>2249.53</ele>
        <time>2018-02-27T10:18:07Z</time>
      </trkpt>
      <trkpt lat="42.86329" lon="0.11549">
        <ele>2246.51</ele>
        <time>2018-02-27T10:18:24Z</time>
      </trkpt>
      <trkpt lat="42.86311" lon="0.11542">
        <ele>2250.43</ele>
        <time>2018-02-27T10:18:46Z</time>
      </trkpt>
      <trkpt lat="42.86292" lon="0.1154">
        <ele>2253.43</ele>
        <time>2018-02-27T10:19:05Z</time>
      </trkpt>
      <trkpt lat="42.86274" lon="0.11533">
        <ele>2256.22</ele>
        <time>2018-02-27T10:19:24Z</time>
      </trkpt>
      <trkpt lat="42.86259" lon="0.11521">
        <ele>2254.82</ele>
        <time>2018-02-27T10:19:40Z</time>
      </trkpt>
      <trkpt lat="42.86241" lon="0.11513">
        <ele>2254.81</ele>
        <time>2018-02-27T10:19:59Z</time>
      </trkpt>
      <trkpt lat="42.86223" lon="0.11508">
        <ele>2256.52</ele>
        <time>2018-02-27T10:20:18Z</time>
      </trkpt>
      <trkpt lat="42.86205" lon="0.11501">
        <ele>2256.52</ele>
        <time>2018-02-27T10:20:36Z</time>
      </trkpt>
      <trkpt lat="42.86187" lon="0.11497">
        <ele>2256.53</ele>
        <time>2018-02-27T10:20:53Z</time>
      </trkpt>
      <trkpt lat="42.86168" lon="0.11495">
        <ele>2254.52</ele>
        <time>2018-02-27T10:21:11Z</time>
      </trkpt>
      <trkpt lat="42.8615" lon="0.11491">
        <ele>2255.43</ele>
        <time>2018-02-27T10:21:25Z</time>
      </trkpt>
      <trkpt lat="42.86132" lon="0.11498">
        <ele>2258.49</ele>
        <time>2018-02-27T10:21:41Z</time>
      </trkpt>
      <trkpt lat="42.86115" lon="0.11508">
        <ele>2260.52</ele>
        <time>2018-02-27T10:21:59Z</time>
      </trkpt>
      <trkpt lat="42.86097" lon="0.11511">
        <ele>2264.52</ele>
        <time>2018-02-27T10:22:17Z</time>
      </trkpt>
      <trkpt lat="42.86078" lon="0.1151">
        <ele>2267.52</ele>
        <time>2018-02-27T10:22:30Z</time>
      </trkpt>
      <trkpt lat="42.86059" lon="0.11507">
        <ele>2267.52</ele>
        <time>2018-02-27T10:22:45Z</time>
      </trkpt>
      <trkpt lat="42.86041" lon="0.11504">
        <ele>2267.55</ele>
        <time>2018-02-27T10:23:02Z</time>
      </trkpt>
      <trkpt lat="42.86023" lon="0.11502">
        <ele>2268.51</ele>
        <time>2018-02-27T10:23:19Z</time>
      </trkpt>
      <trkpt lat="42.86005" lon="0.11499">
        <ele>2269.52</ele>
        <time>2018-02-27T10:23:37Z</time>
      </trkpt>
      <trkpt lat="42.85986" lon="0.11496">
        <ele>2269.51</ele>
        <time>2018-02-27T10:23:54Z</time>
      </trkpt>
      <trkpt lat="42.85969" lon="0.11485">
        <ele>2266.52</ele>
        <time>2018-02-27T10:24:12Z</time>
      </trkpt>
      <trkpt lat="42.85952" lon="0.11492">
        <ele>2264.52</ele>
        <time>2018-02-27T10:24:34Z</time>
      </trkpt>
      <trkpt lat="42.85937" lon="0.11506">
        <ele>2262.5</ele>
        <time>2018-02-27T10:25:01Z</time>
      </trkpt>
      <trkpt lat="42.85922" lon="0.11522">
        <ele>2266.6</ele>
        <time>2018-02-27T10:25:24Z</time>
      </trkpt>
      <trkpt lat="42.85904" lon="0.11526">
        <ele>2269.52</ele>
        <time>2018-02-27T10:26:07Z</time>
      </trkpt>
      <trkpt lat="42.85888" lon="0.11539">
        <ele>2273.79</ele>
        <time>2018-02-27T10:26:34Z</time>
      </trkpt>
      <trkpt lat="42.8587" lon="0.1154">
        <ele>2283.28</ele>
        <time>2018-02-27T10:27:01Z</time>
      </trkpt>
      <trkpt lat="42.85851" lon="0.11541">
        <ele>2286.52</ele>
        <time>2018-02-27T10:27:34Z</time>
      </trkpt>
      <trkpt lat="42.85834" lon="0.11532">
        <ele>2282.46</ele>
        <time>2018-02-27T10:28:51Z</time>
      </trkpt>
      <trkpt lat="42.85816" lon="0.11537">
        <ele>2281.53</ele>
        <time>2018-02-27T10:29:13Z</time>
      </trkpt>
      <trkpt lat="42.858" lon="0.11549">
        <ele>2287.2</ele>
        <time>2018-02-27T10:29:41Z</time>
      </trkpt>
      <trkpt lat="42.85785" lon="0.11562">
        <ele>2290.73</ele>
        <time>2018-02-27T10:30:14Z</time>
      </trkpt>
      <trkpt lat="42.85769" lon="0.11574">
        <ele>2294.52</ele>
        <time>2018-02-27T10:30:45Z</time>
      </trkpt>
      <trkpt lat="42.85755" lon="0.1159">
        <ele>2298.53</ele>
        <time>2018-02-27T10:31:22Z</time>
      </trkpt>
      <trkpt lat="42.85746" lon="0.11613">
        <ele>2303.5</ele>
        <time>2018-02-27T10:31:55Z</time>
      </trkpt>
      <trkpt lat="42.85737" lon="0.11635">
        <ele>2307.52</ele>
        <time>2018-02-27T10:32:28Z</time>
      </trkpt>
      <trkpt lat="42.85732" lon="0.11658">
        <ele>2313.43</ele>
        <time>2018-02-27T10:33:03Z</time>
      </trkpt>
      <trkpt lat="42.85714" lon="0.11653">
        <ele>2317.49</ele>
        <time>2018-02-27T10:33:57Z</time>
      </trkpt>
      <trkpt lat="42.85698" lon="0.11664">
        <ele>2321.52</ele>
        <time>2018-02-27T10:34:50Z</time>
      </trkpt>
      <trkpt lat="42.85683" lon="0.11679">
        <ele>2326.49</ele>
        <time>2018-02-27T10:35:21Z</time>
      </trkpt>
      <trkpt lat="42.8567" lon="0.11696">
        <ele>2329.43</ele>
        <time>2018-02-27T10:35:51Z</time>
      </trkpt>
      <trkpt lat="42.85657" lon="0.11714">
        <ele>2334.5</ele>
        <time>2018-02-27T10:37:26Z</time>
      </trkpt>
      <trkpt lat="42.8564" lon="0.11723">
        <ele>2337.51</ele>
        <time>2018-02-27T10:37:46Z</time>
      </trkpt>
      <trkpt lat="42.85625" lon="0.11739">
        <ele>2336.43</ele>
        <time>2018-02-27T10:38:04Z</time>
      </trkpt>
      <trkpt lat="42.85613" lon="0.11758">
        <ele>2337.82</ele>
        <time>2018-02-27T10:38:24Z</time>
      </trkpt>
      <trkpt lat="42.85601" lon="0.11777">
        <ele>2339.25</ele>
        <time>2018-02-27T10:38:42Z</time>
      </trkpt>
      <trkpt lat="42.85585" lon="0.11789">
        <ele>2339.43</ele>
        <time>2018-02-27T10:39:01Z</time>
      </trkpt>
      <trkpt lat="42.85571" lon="0.11804">
        <ele>2341.52</ele>
        <time>2018-02-27T10:39:21Z</time>
      </trkpt>
      <trkpt lat="42.85556" lon="0.11819">
        <ele>2343.43</ele>
        <time>2018-02-27T10:39:39Z</time>
      </trkpt>
      <trkpt lat="42.85539" lon="0.11828">
        <ele>2345.51</ele>
        <time>2018-02-27T10:40:01Z</time>
      </trkpt>
      <trkpt lat="42.85521" lon="0.11832">
        <ele>2346.22</ele>
        <time>2018-02-27T10:40:21Z</time>
      </trkpt>
      <trkpt lat="42.85503" lon="0.11827">
        <ele>2350.43</ele>
        <time>2018-02-27T10:40:43Z</time>
      </trkpt>
      <trkpt lat="42.85485" lon="0.11829">
        <ele>2350.55</ele>
        <time>2018-02-27T10:41:07Z</time>
      </trkpt>
      <trkpt lat="42.8547" lon="0.11843">
        <ele>2353.79</ele>
        <time>2018-02-27T10:41:33Z</time>
      </trkpt>
      <trkpt lat="42.85458" lon="0.11863">
        <ele>2355.83</ele>
        <time>2018-02-27T10:41:58Z</time>
      </trkpt>
      <trkpt lat="42.85445" lon="0.1188">
        <ele>2357.2</ele>
        <time>2018-02-27T10:42:23Z</time>
      </trkpt>
      <trkpt lat="42.8543" lon="0.11896">
        <ele>2358.82</ele>
        <time>2018-02-27T10:42:52Z</time>
      </trkpt>
      <trkpt lat="42.85417" lon="0.11916">
        <ele>2360.5</ele>
        <time>2018-02-27T10:43:18Z</time>
      </trkpt>
      <trkpt lat="42.85413" lon="0.11941">
        <ele>2358.47</ele>
        <time>2018-02-27T10:43:47Z</time>
      </trkpt>
      <trkpt lat="42.854" lon="0.11958">
        <ele>2357.61</ele>
        <time>2018-02-27T10:44:13Z</time>
      </trkpt>
      <trkpt lat="42.85383" lon="0.11968">
        <ele>2361.43</ele>
        <time>2018-02-27T10:44:42Z</time>
      </trkpt>
      <trkpt lat="42.85367" lon="0.11982">
        <ele>2366.51</ele>
        <time>2018-02-27T10:45:16Z</time>
      </trkpt>
      <trkpt lat="42.85349" lon="0.1199">
        <ele>2365.52</ele>
        <time>2018-02-27T10:46:14Z</time>
      </trkpt>
      <trkpt lat="42.85343" lon="0.12013">
        <ele>2369.43</ele>
        <time>2018-02-27T10:47:20Z</time>
      </trkpt>
      <trkpt lat="42.85351" lon="0.12037">
        <ele>2377.52</ele>
        <time>2018-02-27T10:47:44Z</time>
      </trkpt>
      <trkpt lat="42.85358" lon="0.12061">
        <ele>2379.46</ele>
        <time>2018-02-27T10:48:04Z</time>
      </trkpt>
      <trkpt lat="42.85368" lon="0.12081">
        <ele>2377.5</ele>
        <time>2018-02-27T10:48:28Z</time>
      </trkpt>
      <trkpt lat="42.85378" lon="0.12102">
        <ele>2381.43</ele>
        <time>2018-02-27T10:48:53Z</time>
      </trkpt>
      <trkpt lat="42.85382" lon="0.12126">
        <ele>2402.33</ele>
        <time>2018-02-27T10:54:27Z</time>
      </trkpt>
      <trkpt lat="42.85371" lon="0.12146">
        <ele>2404.52</ele>
        <time>2018-02-27T10:55:45Z</time>
      </trkpt>
      <trkpt lat="42.85389" lon="0.12146">
        <ele>2390.29</ele>
        <time>2018-02-27T10:56:26Z</time>
      </trkpt>
      <trkpt lat="42.85406" lon="0.12158">
        <ele>2395.25</ele>
        <time>2018-02-27T10:57:00Z</time>
      </trkpt>
      <trkpt lat="42.85391" lon="0.12173">
        <ele>2399.22</ele>
        <time>2018-02-27T10:57:30Z</time>
      </trkpt>
      <trkpt lat="42.85377" lon="0.12188">
        <ele>2409.19</ele>
        <time>2018-02-27T10:58:02Z</time>
      </trkpt>
      <trkpt lat="42.85393" lon="0.12198">
        <ele>2411.52</ele>
        <time>2018-02-27T10:59:06Z</time>
      </trkpt>
      <trkpt lat="42.85411" lon="0.12208">
        <ele>2417.34</ele>
        <time>2018-02-27T10:59:43Z</time>
      </trkpt>
      <trkpt lat="42.85395" lon="0.1222">
        <ele>2425.13</ele>
        <time>2018-02-27T11:00:13Z</time>
      </trkpt>
      <trkpt lat="42.8538" lon="0.12235">
        <ele>2430.22</ele>
        <time>2018-02-27T11:00:42Z</time>
      </trkpt>
      <trkpt lat="42.85392" lon="0.12254">
        <ele>2439.52</ele>
        <time>2018-02-27T11:02:35Z</time>
      </trkpt>
      <trkpt lat="42.8538" lon="0.12273">
        <ele>2451.52</ele>
        <time>2018-02-27T11:04:12Z</time>
      </trkpt>
      <trkpt lat="42.85363" lon="0.12281">
        <ele>2454.52</ele>
        <time>2018-02-27T11:04:50Z</time>
      </trkpt>
      <trkpt lat="42.85374" lon="0.123">
        <ele>2460.23</ele>
        <time>2018-02-27T11:06:22Z</time>
      </trkpt>
      <trkpt lat="42.85359" lon="0.12314">
        <ele>2471.13</ele>
        <time>2018-02-27T11:08:24Z</time>
      </trkpt>
      <trkpt lat="42.85342" lon="0.12323">
        <ele>2475.22</ele>
        <time>2018-02-27T11:09:00Z</time>
      </trkpt>
      <trkpt lat="42.85324" lon="0.12332">
        <ele>2480.22</ele>
        <time>2018-02-27T11:09:38Z</time>
      </trkpt>
      <trkpt lat="42.85306" lon="0.12337">
        <ele>2484.51</ele>
        <time>2018-02-27T11:10:12Z</time>
      </trkpt>
      <trkpt lat="42.85288" lon="0.1234">
        <ele>2490.43</ele>
        <time>2018-02-27T11:10:40Z</time>
      </trkpt>
      <trkpt lat="42.8527" lon="0.12341">
        <ele>2496.42</ele>
        <time>2018-02-27T11:11:32Z</time>
      </trkpt>
      <trkpt lat="42.85252" lon="0.12339">
        <ele>2501.43</ele>
        <time>2018-02-27T11:12:09Z</time>
      </trkpt>
      <trkpt lat="42.85234" lon="0.1234">
        <ele>2510.43</ele>
        <time>2018-02-27T11:15:11Z</time>
      </trkpt>
      <trkpt lat="42.85218" lon="0.12351">
        <ele>2510.21</ele>
        <time>2018-02-27T11:32:08Z</time>
      </trkpt>
      <trkpt lat="42.85221" lon="0.12377">
        <ele>2507.76</ele>
        <time>2018-02-27T11:35:11Z</time>
      </trkpt>
      <trkpt lat="42.85221" lon="0.12403">
        <ele>2506.53</ele>
        <time>2018-02-27T11:35:16Z</time>
      </trkpt>
      <trkpt lat="42.85219" lon="0.1243">
        <ele>2499.52</ele>
        <time>2018-02-27T11:40:35Z</time>
      </trkpt>
      <trkpt lat="42.85215" lon="0.12455">
        <ele>2494.58</ele>
        <time>2018-02-27T11:40:45Z</time>
      </trkpt>
      <trkpt lat="42.85196" lon="0.12454">
        <ele>2490.83</ele>
        <time>2018-02-27T11:40:52Z</time>
      </trkpt>
      <trkpt lat="42.85202" lon="0.12481">
        <ele>2484.04</ele>
        <time>2018-02-27T11:41:02Z</time>
      </trkpt>
      <trkpt lat="42.85211" lon="0.12503">
        <ele>2480.92</ele>
        <time>2018-02-27T11:41:06Z</time>
      </trkpt>
      <trkpt lat="42.852" lon="0.12527">
        <ele>2475.91</ele>
        <time>2018-02-27T11:41:17Z</time>
      </trkpt>
      <trkpt lat="42.85187" lon="0.12548">
        <ele>2465.65</ele>
        <time>2018-02-27T11:41:54Z</time>
      </trkpt>
      <trkpt lat="42.85183" lon="0.12572">
        <ele>2463.61</ele>
        <time>2018-02-27T11:41:59Z</time>
      </trkpt>
      <trkpt lat="42.85181" lon="0.12601">
        <ele>2461.83</ele>
        <time>2018-02-27T11:42:04Z</time>
      </trkpt>
      <trkpt lat="42.85172" lon="0.12622">
        <ele>2460.56</ele>
        <time>2018-02-27T11:42:07Z</time>
      </trkpt>
      <trkpt lat="42.85164" lon="0.12649">
        <ele>2457.92</ele>
        <time>2018-02-27T11:42:11Z</time>
      </trkpt>
      <trkpt lat="42.85162" lon="0.12674">
        <ele>2455.53</ele>
        <time>2018-02-27T11:42:17Z</time>
      </trkpt>
      <trkpt lat="42.85162" lon="0.127">
        <ele>2448.61</ele>
        <time>2018-02-27T11:42:35Z</time>
      </trkpt>
      <trkpt lat="42.85159" lon="0.12726">
        <ele>2446.62</ele>
        <time>2018-02-27T11:42:39Z</time>
      </trkpt>
      <trkpt lat="42.85152" lon="0.1275">
        <ele>2443.62</ele>
        <time>2018-02-27T11:42:45Z</time>
      </trkpt>
      <trkpt lat="42.85151" lon="0.12777">
        <ele>2438.61</ele>
        <time>2018-02-27T11:42:57Z</time>
      </trkpt>
      <trkpt lat="42.85146" lon="0.12802">
        <ele>2434.92</ele>
        <time>2018-02-27T11:43:04Z</time>
      </trkpt>
      <trkpt lat="42.85143" lon="0.12829">
        <ele>2427.95</ele>
        <time>2018-02-27T11:43:12Z</time>
      </trkpt>
      <trkpt lat="42.85143" lon="0.12854">
        <ele>2421.95</ele>
        <time>2018-02-27T11:43:18Z</time>
      </trkpt>
      <trkpt lat="42.85142" lon="0.12881">
        <ele>2416.93</ele>
        <time>2018-02-27T11:43:23Z</time>
      </trkpt>
      <trkpt lat="42.85143" lon="0.12906">
        <ele>2406.92</ele>
        <time>2018-02-27T11:43:35Z</time>
      </trkpt>
      <trkpt lat="42.85131" lon="0.12925">
        <ele>2398.62</ele>
        <time>2018-02-27T11:44:39Z</time>
      </trkpt>
      <trkpt lat="42.85134" lon="0.12955">
        <ele>2394.92</ele>
        <time>2018-02-27T11:44:44Z</time>
      </trkpt>
      <trkpt lat="42.85133" lon="0.12984">
        <ele>2389.05</ele>
        <time>2018-02-27T11:44:48Z</time>
      </trkpt>
      <trkpt lat="42.85132" lon="0.13011">
        <ele>2384.95</ele>
        <time>2018-02-27T11:44:53Z</time>
      </trkpt>
      <trkpt lat="42.8512" lon="0.13039">
        <ele>2380.95</ele>
        <time>2018-02-27T11:44:57Z</time>
      </trkpt>
      <trkpt lat="42.8511" lon="0.13062">
        <ele>2378.56</ele>
        <time>2018-02-27T11:45:02Z</time>
      </trkpt>
      <trkpt lat="42.85109" lon="0.13087">
        <ele>2373.82</ele>
        <time>2018-02-27T11:45:25Z</time>
      </trkpt>
      <trkpt lat="42.85103" lon="0.13115">
        <ele>2370.55</ele>
        <time>2018-02-27T11:45:40Z</time>
      </trkpt>
      <trkpt lat="42.85093" lon="0.13137">
        <ele>2365.61</ele>
        <time>2018-02-27T11:47:11Z</time>
      </trkpt>
      <trkpt lat="42.85087" lon="0.13163">
        <ele>2364.61</ele>
        <time>2018-02-27T11:47:18Z</time>
      </trkpt>
      <trkpt lat="42.85076" lon="0.1319">
        <ele>2360.67</ele>
        <time>2018-02-27T11:47:22Z</time>
      </trkpt>
      <trkpt lat="42.85079" lon="0.13218">
        <ele>2358.85</ele>
        <time>2018-02-27T11:47:25Z</time>
      </trkpt>
      <trkpt lat="42.8508" lon="0.13245">
        <ele>2355.86</ele>
        <time>2018-02-27T11:47:29Z</time>
      </trkpt>
      <trkpt lat="42.85081" lon="0.13271">
        <ele>2352.83</ele>
        <time>2018-02-27T11:47:34Z</time>
      </trkpt>
      <trkpt lat="42.85081" lon="0.13296">
        <ele>2350.82</ele>
        <time>2018-02-27T11:47:44Z</time>
      </trkpt>
      <trkpt lat="42.85087" lon="0.13319">
        <ele>2352.51</ele>
        <time>2018-02-27T12:26:03Z</time>
      </trkpt>
      <trkpt lat="42.85101" lon="0.13334">
        <ele>2357.51</ele>
        <time>2018-02-27T12:29:17Z</time>
      </trkpt>
      <trkpt lat="42.85114" lon="0.13352">
        <ele>2359.23</ele>
        <time>2018-02-27T12:29:41Z</time>
      </trkpt>
      <trkpt lat="42.85123" lon="0.13374">
        <ele>2360.52</ele>
        <time>2018-02-27T12:30:03Z</time>
      </trkpt>
      <trkpt lat="42.85131" lon="0.13397">
        <ele>2359.31</ele>
        <time>2018-02-27T12:30:25Z</time>
      </trkpt>
      <trkpt lat="42.85146" lon="0.1341">
        <ele>2362.21</ele>
        <time>2018-02-27T12:30:55Z</time>
      </trkpt>
      <trkpt lat="42.85159" lon="0.13428">
        <ele>2366.13</ele>
        <time>2018-02-27T12:31:28Z</time>
      </trkpt>
      <trkpt lat="42.8517" lon="0.13448">
        <ele>2371.51</ele>
        <time>2018-02-27T12:31:55Z</time>
      </trkpt>
      <trkpt lat="42.85184" lon="0.13464">
        <ele>2377.25</ele>
        <time>2018-02-27T12:32:24Z</time>
      </trkpt>
      <trkpt lat="42.85202" lon="0.13472">
        <ele>2374.55</ele>
        <time>2018-02-27T12:32:42Z</time>
      </trkpt>
      <trkpt lat="42.85217" lon="0.13487">
        <ele>2372.52</ele>
        <time>2018-02-27T12:32:55Z</time>
      </trkpt>
      <trkpt lat="42.85224" lon="0.1351">
        <ele>2377.43</ele>
        <time>2018-02-27T12:33:17Z</time>
      </trkpt>
      <trkpt lat="42.8522" lon="0.13535">
        <ele>2380.52</ele>
        <time>2018-02-27T12:33:41Z</time>
      </trkpt>
      <trkpt lat="42.85213" lon="0.13558">
        <ele>2384.49</ele>
        <time>2018-02-27T12:34:04Z</time>
      </trkpt>
      <trkpt lat="42.85207" lon="0.13582">
        <ele>2384.49</ele>
        <time>2018-02-27T12:34:26Z</time>
      </trkpt>
      <trkpt lat="42.85202" lon="0.13606">
        <ele>2386.59</ele>
        <time>2018-02-27T12:34:50Z</time>
      </trkpt>
      <trkpt lat="42.85197" lon="0.1363">
        <ele>2389.49</ele>
        <time>2018-02-27T12:35:15Z</time>
      </trkpt>
      <trkpt lat="42.85196" lon="0.13654">
        <ele>2386.61</ele>
        <time>2018-02-27T12:35:36Z</time>
      </trkpt>
      <trkpt lat="42.85194" lon="0.13679">
        <ele>2386.61</ele>
        <time>2018-02-27T12:35:57Z</time>
      </trkpt>
      <trkpt lat="42.85198" lon="0.13704">
        <ele>2387.46</ele>
        <time>2018-02-27T12:36:18Z</time>
      </trkpt>
      <trkpt lat="42.85209" lon="0.13725">
        <ele>2388.31</ele>
        <time>2018-02-27T12:36:41Z</time>
      </trkpt>
      <trkpt lat="42.85218" lon="0.13745">
        <ele>2391.46</ele>
        <time>2018-02-27T12:37:01Z</time>
      </trkpt>
      <trkpt lat="42.85228" lon="0.13766">
        <ele>2391.43</ele>
        <time>2018-02-27T12:37:21Z</time>
      </trkpt>
      <trkpt lat="42.85223" lon="0.1379">
        <ele>2394.43</ele>
        <time>2018-02-27T12:37:42Z</time>
      </trkpt>
      <trkpt lat="42.8524" lon="0.138">
        <ele>2392.53</ele>
        <time>2018-02-27T12:38:03Z</time>
      </trkpt>
      <trkpt lat="42.85255" lon="0.13814">
        <ele>2397.49</ele>
        <time>2018-02-27T12:38:27Z</time>
      </trkpt>
      <trkpt lat="42.85263" lon="0.13838">
        <ele>2402.22</ele>
        <time>2018-02-27T12:38:51Z</time>
      </trkpt>
      <trkpt lat="42.85265" lon="0.13863">
        <ele>2407.29</ele>
        <time>2018-02-27T12:39:12Z</time>
      </trkpt>
      <trkpt lat="42.85279" lon="0.13881">
        <ele>2408.52</ele>
        <time>2018-02-27T12:39:36Z</time>
      </trkpt>
      <trkpt lat="42.85293" lon="0.13897">
        <ele>2410.54</ele>
        <time>2018-02-27T12:40:03Z</time>
      </trkpt>
      <trkpt lat="42.85299" lon="0.1392">
        <ele>2413.82</ele>
        <time>2018-02-27T12:40:31Z</time>
      </trkpt>
      <trkpt lat="42.85296" lon="0.13945">
        <ele>2419.51</ele>
        <time>2018-02-27T12:40:53Z</time>
      </trkpt>
      <trkpt lat="42.85298" lon="0.1397">
        <ele>2423.52</ele>
        <time>2018-02-27T12:41:13Z</time>
      </trkpt>
      <trkpt lat="42.85293" lon="0.13994">
        <ele>2420.52</ele>
        <time>2018-02-27T12:41:39Z</time>
      </trkpt>
      <trkpt lat="42.85281" lon="0.14013">
        <ele>2424.49</ele>
        <time>2018-02-27T12:42:03Z</time>
      </trkpt>
      <trkpt lat="42.8527" lon="0.14033">
        <ele>2431.43</ele>
        <time>2018-02-27T12:42:29Z</time>
      </trkpt>
      <trkpt lat="42.85266" lon="0.14057">
        <ele>2429.52</ele>
        <time>2018-02-27T12:42:53Z</time>
      </trkpt>
      <trkpt lat="42.8526" lon="0.14081">
        <ele>2430.54</ele>
        <time>2018-02-27T12:43:17Z</time>
      </trkpt>
      <trkpt lat="42.85261" lon="0.14106">
        <ele>2429.52</ele>
        <time>2018-02-27T12:43:41Z</time>
      </trkpt>
      <trkpt lat="42.85251" lon="0.14127">
        <ele>2430.8</ele>
        <time>2018-02-27T12:44:03Z</time>
      </trkpt>
      <trkpt lat="42.8524" lon="0.14148">
        <ele>2431.52</ele>
        <time>2018-02-27T12:44:27Z</time>
      </trkpt>
      <trkpt lat="42.85237" lon="0.14172">
        <ele>2435.52</ele>
        <time>2018-02-27T12:44:52Z</time>
      </trkpt>
      <trkpt lat="42.85233" lon="0.14197">
        <ele>2439.51</ele>
        <time>2018-02-27T12:45:17Z</time>
      </trkpt>
      <trkpt lat="42.85246" lon="0.14214">
        <ele>2440.64</ele>
        <time>2018-02-27T12:45:54Z</time>
      </trkpt>
      <trkpt lat="42.85263" lon="0.14202">
        <ele>2446.19</ele>
        <time>2018-02-27T12:46:22Z</time>
      </trkpt>
      <trkpt lat="42.8528" lon="0.14193">
        <ele>2448.52</ele>
        <time>2018-02-27T12:46:58Z</time>
      </trkpt>
      <trkpt lat="42.85298" lon="0.1419">
        <ele>2453.13</ele>
        <time>2018-02-27T12:47:26Z</time>
      </trkpt>
      <trkpt lat="42.85315" lon="0.14199">
        <ele>2459.73</ele>
        <time>2018-02-27T12:47:56Z</time>
      </trkpt>
      <trkpt lat="42.85334" lon="0.14198">
        <ele>2464.55</ele>
        <time>2018-02-27T12:48:29Z</time>
      </trkpt>
      <trkpt lat="42.85351" lon="0.1419">
        <ele>2466.52</ele>
        <time>2018-02-27T12:48:56Z</time>
      </trkpt>
      <trkpt lat="42.8537" lon="0.14186">
        <ele>2467.75</ele>
        <time>2018-02-27T12:49:22Z</time>
      </trkpt>
      <trkpt lat="42.85365" lon="0.14161">
        <ele>2478.52</ele>
        <time>2018-02-27T12:52:53Z</time>
      </trkpt>
      <trkpt lat="42.85362" lon="0.14137">
        <ele>2484.52</ele>
        <time>2018-02-27T12:53:26Z</time>
      </trkpt>
      <trkpt lat="42.85368" lon="0.14113">
        <ele>2486.22</ele>
        <time>2018-02-27T12:53:58Z</time>
      </trkpt>
      <trkpt lat="42.85377" lon="0.14091">
        <ele>2490.55</ele>
        <time>2018-02-27T12:54:27Z</time>
      </trkpt>
      <trkpt lat="42.85392" lon="0.14077">
        <ele>2496.52</ele>
        <time>2018-02-27T12:54:54Z</time>
      </trkpt>
      <trkpt lat="42.85408" lon="0.14065">
        <ele>2497.52</ele>
        <time>2018-02-27T12:55:17Z</time>
      </trkpt>
      <trkpt lat="42.85422" lon="0.14048">
        <ele>2498.43</ele>
        <time>2018-02-27T12:55:38Z</time>
      </trkpt>
      <trkpt lat="42.85441" lon="0.14041">
        <ele>2496.91</ele>
        <time>2018-02-27T12:56:08Z</time>
      </trkpt>
      <trkpt lat="42.8546" lon="0.14042">
        <ele>2492.63</ele>
        <time>2018-02-27T12:56:13Z</time>
      </trkpt>
      <trkpt lat="42.85478" lon="0.14037">
        <ele>2491.73</ele>
        <time>2018-02-27T12:56:37Z</time>
      </trkpt>
      <trkpt lat="42.85496" lon="0.14029">
        <ele>2492.52</ele>
        <time>2018-02-27T12:56:56Z</time>
      </trkpt>
      <trkpt lat="42.85513" lon="0.14019">
        <ele>2491.53</ele>
        <time>2018-02-27T12:57:12Z</time>
      </trkpt>
      <trkpt lat="42.85529" lon="0.14008">
        <ele>2491.22</ele>
        <time>2018-02-27T12:57:27Z</time>
      </trkpt>
      <trkpt lat="42.85548" lon="0.14003">
        <ele>2490.74</ele>
        <time>2018-02-27T12:57:45Z</time>
      </trkpt>
      <trkpt lat="42.85565" lon="0.13995">
        <ele>2489.52</ele>
        <time>2018-02-27T12:58:05Z</time>
      </trkpt>
      <trkpt lat="42.85583" lon="0.13997">
        <ele>2489.52</ele>
        <time>2018-02-27T12:58:30Z</time>
      </trkpt>
      <trkpt lat="42.85599" lon="0.14008">
        <ele>2490.22</ele>
        <time>2018-02-27T12:58:55Z</time>
      </trkpt>
      <trkpt lat="42.85616" lon="0.14016">
        <ele>2491.61</ele>
        <time>2018-02-27T12:59:16Z</time>
      </trkpt>
      <trkpt lat="42.85634" lon="0.14023">
        <ele>2493.43</ele>
        <time>2018-02-27T12:59:38Z</time>
      </trkpt>
      <trkpt lat="42.85652" lon="0.14029">
        <ele>2493.52</ele>
        <time>2018-02-27T13:00:01Z</time>
      </trkpt>
      <trkpt lat="42.85669" lon="0.14039">
        <ele>2494.52</ele>
        <time>2018-02-27T13:00:24Z</time>
      </trkpt>
      <trkpt lat="42.85683" lon="0.14054">
        <ele>2497.6</ele>
        <time>2018-02-27T13:00:53Z</time>
      </trkpt>
      <trkpt lat="42.85701" lon="0.14058">
        <ele>2501.83</ele>
        <time>2018-02-27T13:01:23Z</time>
      </trkpt>
      <trkpt lat="42.85706" lon="0.14034">
        <ele>2509.53</ele>
        <time>2018-02-27T13:02:13Z</time>
      </trkpt>
      <trkpt lat="42.85724" lon="0.14033">
        <ele>2514.5</ele>
        <time>2018-02-27T13:02:39Z</time>
      </trkpt>
      <trkpt lat="42.85733" lon="0.14012">
        <ele>2514.52</ele>
        <time>2018-02-27T13:11:54Z</time>
      </trkpt>
      <trkpt lat="42.85731" lon="0.13987">
        <ele>2518.45</ele>
        <time>2018-02-27T13:12:32Z</time>
      </trkpt>
      <trkpt lat="42.85721" lon="0.13966">
        <ele>2524.58</ele>
        <time>2018-02-27T13:13:02Z</time>
      </trkpt>
      <trkpt lat="42.85728" lon="0.13944">
        <ele>2526.81</ele>
        <time>2018-02-27T13:13:46Z</time>
      </trkpt>
      <trkpt lat="42.85717" lon="0.13924">
        <ele>2538.43</ele>
        <time>2018-02-27T13:14:26Z</time>
      </trkpt>
      <trkpt lat="42.85734" lon="0.13912">
        <ele>2534.58</ele>
        <time>2018-02-27T13:15:02Z</time>
      </trkpt>
      <trkpt lat="42.85722" lon="0.13892">
        <ele>2552.21</ele>
        <time>2018-02-27T13:16:12Z</time>
      </trkpt>
      <trkpt lat="42.85725" lon="0.13868">
        <ele>2552.52</ele>
        <time>2018-02-27T13:17:18Z</time>
      </trkpt>
      <trkpt lat="42.85708" lon="0.13857">
        <ele>2567.22</ele>
        <time>2018-02-27T13:18:26Z</time>
      </trkpt>
      <trkpt lat="42.85724" lon="0.13841">
        <ele>2563.53</ele>
        <time>2018-02-27T13:19:29Z</time>
      </trkpt>
      <trkpt lat="42.85729" lon="0.13817">
        <ele>2576.52</ele>
        <time>2018-02-27T13:21:11Z</time>
      </trkpt>
      <trkpt lat="42.85713" lon="0.13805">
        <ele>2592.51</ele>
        <time>2018-02-27T13:22:51Z</time>
      </trkpt>
      <trkpt lat="42.85718" lon="0.13782">
        <ele>2600.43</ele>
        <time>2018-02-27T13:24:49Z</time>
      </trkpt>
      <trkpt lat="42.8573" lon="0.13762">
        <ele>2612.52</ele>
        <time>2018-02-27T13:26:42Z</time>
      </trkpt>
      <trkpt lat="42.85745" lon="0.13748">
        <ele>2619.19</ele>
        <time>2018-02-27T13:27:28Z</time>
      </trkpt>
      <trkpt lat="42.85759" lon="0.13732">
        <ele>2625.51</ele>
        <time>2018-02-27T13:28:25Z</time>
      </trkpt>
      <trkpt lat="42.85773" lon="0.13717">
        <ele>2631.22</ele>
        <time>2018-02-27T13:29:25Z</time>
      </trkpt>
      <trkpt lat="42.85763" lon="0.13697">
        <ele>2645.52</ele>
        <time>2018-02-27T13:33:22Z</time>
      </trkpt>
      <trkpt lat="42.85775" lon="0.13678">
        <ele>2654.43</ele>
        <time>2018-02-27T13:42:49Z</time>
      </trkpt>
      <trkpt lat="42.85787" lon="0.13659">
        <ele>2660.31</ele>
        <time>2018-02-27T13:53:43Z</time>
      </trkpt>
      <trkpt lat="42.85797" lon="0.13637">
        <ele>2658.53</ele>
        <time>2018-02-27T14:03:34Z</time>
      </trkpt>
      <trkpt lat="42.85812" lon="0.13623">
        <ele>2653.61</ele>
        <time>2018-02-27T14:04:24Z</time>
      </trkpt>
      <trkpt lat="42.85826" lon="0.1364">
        <ele>2646.55</ele>
        <time>2018-02-27T14:04:50Z</time>
      </trkpt>
      <trkpt lat="42.8583" lon="0.13664">
        <ele>2642.51</ele>
        <time>2018-02-27T14:05:20Z</time>
      </trkpt>
      <trkpt lat="42.85844" lon="0.1368">
        <ele>2627.82</ele>
        <time>2018-02-27T14:05:57Z</time>
      </trkpt>
      <trkpt lat="42.85862" lon="0.13684">
        <ele>2613.64</ele>
        <time>2018-02-27T14:06:35Z</time>
      </trkpt>
      <trkpt lat="42.85878" lon="0.13696">
        <ele>2608.91</ele>
        <time>2018-02-27T14:06:50Z</time>
      </trkpt>
      <trkpt lat="42.85896" lon="0.13687">
        <ele>2603.92</ele>
        <time>2018-02-27T14:06:57Z</time>
      </trkpt>
      <trkpt lat="42.85911" lon="0.13673">
        <ele>2599.25</ele>
        <time>2018-02-27T14:07:01Z</time>
      </trkpt>
      <trkpt lat="42.85927" lon="0.13655">
        <ele>2595.05</ele>
        <time>2018-02-27T14:07:04Z</time>
      </trkpt>
      <trkpt lat="42.85943" lon="0.13641">
        <ele>2591.95</ele>
        <time>2018-02-27T14:07:07Z</time>
      </trkpt>
      <trkpt lat="42.8596" lon="0.13631">
        <ele>2588.95</ele>
        <time>2018-02-27T14:07:10Z</time>
      </trkpt>
      <trkpt lat="42.8598" lon="0.1362">
        <ele>2582.37</ele>
        <time>2018-02-27T14:07:14Z</time>
      </trkpt>
      <trkpt lat="42.85997" lon="0.13605">
        <ele>2575.95</ele>
        <time>2018-02-27T14:07:20Z</time>
      </trkpt>
      <trkpt lat="42.86015" lon="0.13596">
        <ele>2565.83</ele>
        <time>2018-02-27T14:09:52Z</time>
      </trkpt>
      <trkpt lat="42.86034" lon="0.13605">
        <ele>2562.55</ele>
        <time>2018-02-27T14:10:01Z</time>
      </trkpt>
      <trkpt lat="42.86058" lon="0.13615">
        <ele>2560.91</ele>
        <time>2018-02-27T14:10:05Z</time>
      </trkpt>
      <trkpt lat="42.86071" lon="0.13594">
        <ele>2555.05</ele>
        <time>2018-02-27T14:10:09Z</time>
      </trkpt>
      <trkpt lat="42.86086" lon="0.13576">
        <ele>2548.95</ele>
        <time>2018-02-27T14:10:14Z</time>
      </trkpt>
      <trkpt lat="42.86107" lon="0.13579">
        <ele>2544.16</ele>
        <time>2018-02-27T14:10:20Z</time>
      </trkpt>
      <trkpt lat="42.86124" lon="0.13593">
        <ele>2542.63</ele>
        <time>2018-02-27T14:10:23Z</time>
      </trkpt>
      <trkpt lat="42.86149" lon="0.13594">
        <ele>2539.3</ele>
        <time>2018-02-27T14:10:26Z</time>
      </trkpt>
      <trkpt lat="42.86167" lon="0.13587">
        <ele>2533.38</ele>
        <time>2018-02-27T14:10:29Z</time>
      </trkpt>
      <trkpt lat="42.86186" lon="0.13575">
        <ele>2527.95</ele>
        <time>2018-02-27T14:10:34Z</time>
      </trkpt>
      <trkpt lat="42.86203" lon="0.13563">
        <ele>2524.63</ele>
        <time>2018-02-27T14:10:38Z</time>
      </trkpt>
      <trkpt lat="42.86221" lon="0.13553">
        <ele>2522.55</ele>
        <time>2018-02-27T14:10:43Z</time>
      </trkpt>
      <trkpt lat="42.86238" lon="0.13543">
        <ele>2519.85</ele>
        <time>2018-02-27T14:10:50Z</time>
      </trkpt>
      <trkpt lat="42.86256" lon="0.13533">
        <ele>2516.91</ele>
        <time>2018-02-27T14:10:56Z</time>
      </trkpt>
      <trkpt lat="42.86275" lon="0.13531">
        <ele>2511.95</ele>
        <time>2018-02-27T14:11:02Z</time>
      </trkpt>
      <trkpt lat="42.86297" lon="0.13532">
        <ele>2507.85</ele>
        <time>2018-02-27T14:11:10Z</time>
      </trkpt>
      <trkpt lat="42.86315" lon="0.13534">
        <ele>2504.95</ele>
        <time>2018-02-27T14:11:13Z</time>
      </trkpt>
      <trkpt lat="42.86337" lon="0.13535">
        <ele>2504.53</ele>
        <time>2018-02-27T14:11:17Z</time>
      </trkpt>
      <trkpt lat="42.86357" lon="0.13536">
        <ele>2503.61</ele>
        <time>2018-02-27T14:11:21Z</time>
      </trkpt>
      <trkpt lat="42.86376" lon="0.13538">
        <ele>2500.65</ele>
        <time>2018-02-27T14:11:25Z</time>
      </trkpt>
      <trkpt lat="42.86391" lon="0.1352">
        <ele>2493.83</ele>
        <time>2018-02-27T14:12:24Z</time>
      </trkpt>
      <trkpt lat="42.86388" lon="0.13494">
        <ele>2489.97</ele>
        <time>2018-02-27T14:12:28Z</time>
      </trkpt>
      <trkpt lat="42.86389" lon="0.13468">
        <ele>2482.35</ele>
        <time>2018-02-27T14:12:33Z</time>
      </trkpt>
      <trkpt lat="42.86387" lon="0.13436">
        <ele>2477.95</ele>
        <time>2018-02-27T14:12:37Z</time>
      </trkpt>
      <trkpt lat="42.86386" lon="0.13405">
        <ele>2473.95</ele>
        <time>2018-02-27T14:12:41Z</time>
      </trkpt>
      <trkpt lat="42.8639" lon="0.13381">
        <ele>2451.24</ele>
        <time>2018-02-27T14:15:49Z</time>
      </trkpt>
      <trkpt lat="42.86396" lon="0.13358">
        <ele>2444.87</ele>
        <time>2018-02-27T14:15:54Z</time>
      </trkpt>
      <trkpt lat="42.86415" lon="0.13354">
        <ele>2438.99</ele>
        <time>2018-02-27T14:15:58Z</time>
      </trkpt>
      <trkpt lat="42.86419" lon="0.1333">
        <ele>2433.6</ele>
        <time>2018-02-27T14:16:03Z</time>
      </trkpt>
      <trkpt lat="42.86403" lon="0.13304">
        <ele>2430.86</ele>
        <time>2018-02-27T14:16:07Z</time>
      </trkpt>
      <trkpt lat="42.86388" lon="0.13286">
        <ele>2424.37</ele>
        <time>2018-02-27T14:16:11Z</time>
      </trkpt>
      <trkpt lat="42.86378" lon="0.13265">
        <ele>2418.83</ele>
        <time>2018-02-27T14:16:17Z</time>
      </trkpt>
      <trkpt lat="42.86392" lon="0.13249">
        <ele>2413.95</ele>
        <time>2018-02-27T14:16:26Z</time>
      </trkpt>
      <trkpt lat="42.86403" lon="0.13225">
        <ele>2408</ele>
        <time>2018-02-27T14:16:30Z</time>
      </trkpt>
      <trkpt lat="42.86399" lon="0.13198">
        <ele>2402.26</ele>
        <time>2018-02-27T14:16:34Z</time>
      </trkpt>
      <trkpt lat="42.86404" lon="0.1317">
        <ele>2392.32</ele>
        <time>2018-02-27T14:16:39Z</time>
      </trkpt>
      <trkpt lat="42.86408" lon="0.13139">
        <ele>2384.3</ele>
        <time>2018-02-27T14:16:43Z</time>
      </trkpt>
      <trkpt lat="42.86408" lon="0.13109">
        <ele>2377.47</ele>
        <time>2018-02-27T14:16:46Z</time>
      </trkpt>
      <trkpt lat="42.86429" lon="0.13089">
        <ele>2366.64</ele>
        <time>2018-02-27T14:17:58Z</time>
      </trkpt>
      <trkpt lat="42.8644" lon="0.1306">
        <ele>2363.45</ele>
        <time>2018-02-27T14:18:01Z</time>
      </trkpt>
      <trkpt lat="42.86443" lon="0.13036">
        <ele>2359.96</ele>
        <time>2018-02-27T14:18:04Z</time>
      </trkpt>
      <trkpt lat="42.86446" lon="0.13011">
        <ele>2356.85</ele>
        <time>2018-02-27T14:18:09Z</time>
      </trkpt>
      <trkpt lat="42.86446" lon="0.12986">
        <ele>2353.85</ele>
        <time>2018-02-27T14:18:14Z</time>
      </trkpt>
      <trkpt lat="42.86446" lon="0.12958">
        <ele>2351.55</ele>
        <time>2018-02-27T14:18:22Z</time>
      </trkpt>
      <trkpt lat="42.86454" lon="0.12936">
        <ele>2345.52</ele>
        <time>2018-02-27T14:18:50Z</time>
      </trkpt>
      <trkpt lat="42.86465" lon="0.12916">
        <ele>2340.95</ele>
        <time>2018-02-27T14:18:55Z</time>
      </trkpt>
      <trkpt lat="42.86472" lon="0.12893">
        <ele>2338.85</ele>
        <time>2018-02-27T14:18:59Z</time>
      </trkpt>
      <trkpt lat="42.86477" lon="0.12867">
        <ele>2335.92</ele>
        <time>2018-02-27T14:19:04Z</time>
      </trkpt>
      <trkpt lat="42.86482" lon="0.12842">
        <ele>2333.59</ele>
        <time>2018-02-27T14:19:11Z</time>
      </trkpt>
      <trkpt lat="42.86494" lon="0.12824">
        <ele>2330.64</ele>
        <time>2018-02-27T14:19:46Z</time>
      </trkpt>
      <trkpt lat="42.86505" lon="0.12802">
        <ele>2326.95</ele>
        <time>2018-02-27T14:19:50Z</time>
      </trkpt>
      <trkpt lat="42.86521" lon="0.12785">
        <ele>2323.16</ele>
        <time>2018-02-27T14:19:54Z</time>
      </trkpt>
      <trkpt lat="42.86532" lon="0.12764">
        <ele>2319.96</ele>
        <time>2018-02-27T14:19:57Z</time>
      </trkpt>
      <trkpt lat="42.8654" lon="0.12741">
        <ele>2314.23</ele>
        <time>2018-02-27T14:20:02Z</time>
      </trkpt>
      <trkpt lat="42.86559" lon="0.1274">
        <ele>2310.92</ele>
        <time>2018-02-27T14:20:08Z</time>
      </trkpt>
      <trkpt lat="42.86577" lon="0.12719">
        <ele>2307.52</ele>
        <time>2018-02-27T14:20:11Z</time>
      </trkpt>
      <trkpt lat="42.86588" lon="0.12698">
        <ele>2294.85</ele>
        <time>2018-02-27T14:20:41Z</time>
      </trkpt>
      <trkpt lat="42.86606" lon="0.12687">
        <ele>2291.92</ele>
        <time>2018-02-27T14:20:45Z</time>
      </trkpt>
      <trkpt lat="42.86622" lon="0.12666">
        <ele>2287.97</ele>
        <time>2018-02-27T14:20:49Z</time>
      </trkpt>
      <trkpt lat="42.86638" lon="0.12643">
        <ele>2284.24</ele>
        <time>2018-02-27T14:20:53Z</time>
      </trkpt>
      <trkpt lat="42.86648" lon="0.12623">
        <ele>2279.56</ele>
        <time>2018-02-27T14:20:56Z</time>
      </trkpt>
      <trkpt lat="42.86657" lon="0.12601">
        <ele>2271.44</ele>
        <time>2018-02-27T14:20:59Z</time>
      </trkpt>
      <trkpt lat="42.86672" lon="0.12584">
        <ele>2264.2</ele>
        <time>2018-02-27T14:21:02Z</time>
      </trkpt>
      <trkpt lat="42.86687" lon="0.12569">
        <ele>2259.28</ele>
        <time>2018-02-27T14:21:05Z</time>
      </trkpt>
      <trkpt lat="42.867" lon="0.1255">
        <ele>2253.31</ele>
        <time>2018-02-27T14:21:08Z</time>
      </trkpt>
      <trkpt lat="42.86716" lon="0.12533">
        <ele>2246.4</ele>
        <time>2018-02-27T14:21:11Z</time>
      </trkpt>
      <trkpt lat="42.86734" lon="0.12513">
        <ele>2241.35</ele>
        <time>2018-02-27T14:21:14Z</time>
      </trkpt>
      <trkpt lat="42.86755" lon="0.12495">
        <ele>2231.12</ele>
        <time>2018-02-27T14:21:17Z</time>
      </trkpt>
      <trkpt lat="42.86769" lon="0.12478">
        <ele>2224.63</ele>
        <time>2018-02-27T14:21:19Z</time>
      </trkpt>
      <trkpt lat="42.86781" lon="0.12454">
        <ele>2220</ele>
        <time>2018-02-27T14:21:22Z</time>
      </trkpt>
      <trkpt lat="42.86796" lon="0.12439">
        <ele>2211.43</ele>
        <time>2018-02-27T14:24:32Z</time>
      </trkpt>
      <trkpt lat="42.86808" lon="0.12417">
        <ele>2211.52</ele>
        <time>2018-02-27T14:24:46Z</time>
      </trkpt>
      <trkpt lat="42.86823" lon="0.124">
        <ele>2209.55</ele>
        <time>2018-02-27T14:24:51Z</time>
      </trkpt>
      <trkpt lat="42.86834" lon="0.12377">
        <ele>2207.64</ele>
        <time>2018-02-27T14:24:56Z</time>
      </trkpt>
      <trkpt lat="42.86851" lon="0.12364">
        <ele>2204.94</ele>
        <time>2018-02-27T14:24:59Z</time>
      </trkpt>
      <trkpt lat="42.86864" lon="0.12346">
        <ele>2201.95</ele>
        <time>2018-02-27T14:25:02Z</time>
      </trkpt>
      <trkpt lat="42.86875" lon="0.12318">
        <ele>2198.94</ele>
        <time>2018-02-27T14:25:06Z</time>
      </trkpt>
      <trkpt lat="42.86883" lon="0.12289">
        <ele>2197.53</ele>
        <time>2018-02-27T14:25:10Z</time>
      </trkpt>
      <trkpt lat="42.86888" lon="0.12266">
        <ele>2195.62</ele>
        <time>2018-02-27T14:25:14Z</time>
      </trkpt>
      <trkpt lat="42.86895" lon="0.12243">
        <ele>2195.52</ele>
        <time>2018-02-27T14:25:20Z</time>
      </trkpt>
      <trkpt lat="42.86902" lon="0.1222">
        <ele>2194.52</ele>
        <time>2018-02-27T14:25:26Z</time>
      </trkpt>
      <trkpt lat="42.86909" lon="0.12197">
        <ele>2193.53</ele>
        <time>2018-02-27T14:25:33Z</time>
      </trkpt>
      <trkpt lat="42.86916" lon="0.12172">
        <ele>2190.52</ele>
        <time>2018-02-27T14:25:50Z</time>
      </trkpt>
      <trkpt lat="42.86926" lon="0.1215">
        <ele>2188.61</ele>
        <time>2018-02-27T14:26:11Z</time>
      </trkpt>
      <trkpt lat="42.86932" lon="0.12122">
        <ele>2188.52</ele>
        <time>2018-02-27T14:26:30Z</time>
      </trkpt>
      <trkpt lat="42.86941" lon="0.12099">
        <ele>2188.5</ele>
        <time>2018-02-27T14:26:48Z</time>
      </trkpt>
      <trkpt lat="42.86948" lon="0.12075">
        <ele>2189.25</ele>
        <time>2018-02-27T14:27:09Z</time>
      </trkpt>
      <trkpt lat="42.86956" lon="0.12052">
        <ele>2191.52</ele>
        <time>2018-02-27T14:27:38Z</time>
      </trkpt>
      <trkpt lat="42.8696" lon="0.12028">
        <ele>2189.55</ele>
        <time>2018-02-27T14:29:23Z</time>
      </trkpt>
      <trkpt lat="42.86971" lon="0.12002">
        <ele>2185.95</ele>
        <time>2018-02-27T14:29:29Z</time>
      </trkpt>
      <trkpt lat="42.86984" lon="0.11982">
        <ele>2184.26</ele>
        <time>2018-02-27T14:29:34Z</time>
      </trkpt>
      <trkpt lat="42.86993" lon="0.11958">
        <ele>2182.55</ele>
        <time>2018-02-27T14:29:43Z</time>
      </trkpt>
      <trkpt lat="42.87011" lon="0.11953">
        <ele>2181.52</ele>
        <time>2018-02-27T14:29:49Z</time>
      </trkpt>
      <trkpt lat="42.87028" lon="0.1194">
        <ele>2178.85</ele>
        <time>2018-02-27T14:30:22Z</time>
      </trkpt>
      <trkpt lat="42.87042" lon="0.11919">
        <ele>2174.86</ele>
        <time>2018-02-27T14:30:27Z</time>
      </trkpt>
      <trkpt lat="42.87058" lon="0.11897">
        <ele>2169.96</ele>
        <time>2018-02-27T14:30:31Z</time>
      </trkpt>
      <trkpt lat="42.87077" lon="0.11885">
        <ele>2164.34</ele>
        <time>2018-02-27T14:30:35Z</time>
      </trkpt>
      <trkpt lat="42.87092" lon="0.11901">
        <ele>2158.02</ele>
        <time>2018-02-27T14:30:40Z</time>
      </trkpt>
      <trkpt lat="42.87114" lon="0.11899">
        <ele>2152.95</ele>
        <time>2018-02-27T14:30:45Z</time>
      </trkpt>
      <trkpt lat="42.87132" lon="0.11897">
        <ele>2148.98</ele>
        <time>2018-02-27T14:30:48Z</time>
      </trkpt>
      <trkpt lat="42.87151" lon="0.11907">
        <ele>2142.4</ele>
        <time>2018-02-27T14:30:51Z</time>
      </trkpt>
      <trkpt lat="42.8717" lon="0.11917">
        <ele>2137.95</ele>
        <time>2018-02-27T14:30:55Z</time>
      </trkpt>
      <trkpt lat="42.87188" lon="0.11919">
        <ele>2133.62</ele>
        <time>2018-02-27T14:31:02Z</time>
      </trkpt>
      <trkpt lat="42.87199" lon="0.11893">
        <ele>2123.21</ele>
        <time>2018-02-27T14:32:08Z</time>
      </trkpt>
      <trkpt lat="42.87213" lon="0.11875">
        <ele>2118.95</ele>
        <time>2018-02-27T14:32:12Z</time>
      </trkpt>
      <trkpt lat="42.87223" lon="0.11897">
        <ele>2116.64</ele>
        <time>2018-02-27T14:32:17Z</time>
      </trkpt>
      <trkpt lat="42.87232" lon="0.11918">
        <ele>2114.52</ele>
        <time>2018-02-27T14:32:36Z</time>
      </trkpt>
      <trkpt lat="42.87247" lon="0.11937">
        <ele>2113.55</ele>
        <time>2018-02-27T14:32:58Z</time>
      </trkpt>
      <trkpt lat="42.87256" lon="0.11963">
        <ele>2111.62</ele>
        <time>2018-02-27T14:33:07Z</time>
      </trkpt>
      <trkpt lat="42.87272" lon="0.1198">
        <ele>2111.52</ele>
        <time>2018-02-27T14:33:12Z</time>
      </trkpt>
      <trkpt lat="42.87289" lon="0.11991">
        <ele>2111.52</ele>
        <time>2018-02-27T14:33:19Z</time>
      </trkpt>
      <trkpt lat="42.87307" lon="0.12006">
        <ele>2110.53</ele>
        <time>2018-02-27T14:33:25Z</time>
      </trkpt>
      <trkpt lat="42.8732" lon="0.12023">
        <ele>2110.52</ele>
        <time>2018-02-27T14:33:31Z</time>
      </trkpt>
      <trkpt lat="42.87338" lon="0.12031">
        <ele>2112.51</ele>
        <time>2018-02-27T14:40:16Z</time>
      </trkpt>
      <trkpt lat="42.87356" lon="0.12027">
        <ele>2112.52</ele>
        <time>2018-02-27T14:40:37Z</time>
      </trkpt>
      <trkpt lat="42.87374" lon="0.12018">
        <ele>2110.53</ele>
        <time>2018-02-27T14:40:58Z</time>
      </trkpt>
      <trkpt lat="42.87387" lon="0.12003">
        <ele>2111.5</ele>
        <time>2018-02-27T14:41:20Z</time>
      </trkpt>
      <trkpt lat="42.87402" lon="0.11986">
        <ele>2110.5</ele>
        <time>2018-02-27T14:41:43Z</time>
      </trkpt>
      <trkpt lat="42.87412" lon="0.11964">
        <ele>2109.52</ele>
        <time>2018-02-27T14:42:15Z</time>
      </trkpt>
      <trkpt lat="42.8741" lon="0.11989">
        <ele>2109.51</ele>
        <time>2018-02-27T14:43:01Z</time>
      </trkpt>
      <trkpt lat="42.87415" lon="0.12014">
        <ele>2117.52</ele>
        <time>2018-02-27T14:44:22Z</time>
      </trkpt>
      <trkpt lat="42.87408" lon="0.12037">
        <ele>2119.73</ele>
        <time>2018-02-27T14:44:51Z</time>
      </trkpt>
      <trkpt lat="42.874" lon="0.1206">
        <ele>2122.51</ele>
        <time>2018-02-27T14:45:20Z</time>
      </trkpt>
      <trkpt lat="42.87419" lon="0.12065">
        <ele>2136.21</ele>
        <time>2018-02-27T14:46:02Z</time>
      </trkpt>
      <trkpt lat="42.87436" lon="0.12076">
        <ele>2137.43</ele>
        <time>2018-02-27T14:46:25Z</time>
      </trkpt>
      <trkpt lat="42.87449" lon="0.12093">
        <ele>2137.73</ele>
        <time>2018-02-27T14:46:43Z</time>
      </trkpt>
      <trkpt lat="42.87466" lon="0.12103">
        <ele>2136.52</ele>
        <time>2018-02-27T14:47:35Z</time>
      </trkpt>
      <trkpt lat="42.87486" lon="0.12102">
        <ele>2135.43</ele>
        <time>2018-02-27T14:59:20Z</time>
      </trkpt>
      <trkpt lat="42.87504" lon="0.12097">
        <ele>2135.73</ele>
        <time>2018-02-27T14:59:26Z</time>
      </trkpt>
      <trkpt lat="42.87523" lon="0.1209">
        <ele>2134.53</ele>
        <time>2018-02-27T14:59:33Z</time>
      </trkpt>
      <trkpt lat="42.87542" lon="0.12084">
        <ele>2132.53</ele>
        <time>2018-02-27T14:59:39Z</time>
      </trkpt>
      <trkpt lat="42.87558" lon="0.12068">
        <ele>2128.55</ele>
        <time>2018-02-27T14:59:49Z</time>
      </trkpt>
      <trkpt lat="42.87575" lon="0.12055">
        <ele>2127.52</ele>
        <time>2018-02-27T14:59:55Z</time>
      </trkpt>
      <trkpt lat="42.87596" lon="0.12044">
        <ele>2126.82</ele>
        <time>2018-02-27T15:00:00Z</time>
      </trkpt>
      <trkpt lat="42.87612" lon="0.12025">
        <ele>2122.65</ele>
        <time>2018-02-27T15:00:05Z</time>
      </trkpt>
      <trkpt lat="42.87621" lon="0.12004">
        <ele>2118.85</ele>
        <time>2018-02-27T15:00:12Z</time>
      </trkpt>
      <trkpt lat="42.87629" lon="0.11978">
        <ele>2112.98</ele>
        <time>2018-02-27T15:00:17Z</time>
      </trkpt>
      <trkpt lat="42.87636" lon="0.11953">
        <ele>2108.84</ele>
        <time>2018-02-27T15:00:23Z</time>
      </trkpt>
      <trkpt lat="42.87641" lon="0.11926">
        <ele>2101.94</ele>
        <time>2018-02-27T15:02:16Z</time>
      </trkpt>
      <trkpt lat="42.87654" lon="0.11908">
        <ele>2100.62</ele>
        <time>2018-02-27T15:02:19Z</time>
      </trkpt>
      <trkpt lat="42.8767" lon="0.11887">
        <ele>2097.86</ele>
        <time>2018-02-27T15:02:23Z</time>
      </trkpt>
      <trkpt lat="42.87681" lon="0.11865">
        <ele>2095.62</ele>
        <time>2018-02-27T15:02:27Z</time>
      </trkpt>
      <trkpt lat="42.87691" lon="0.11843">
        <ele>2093.83</ele>
        <time>2018-02-27T15:02:31Z</time>
      </trkpt>
      <trkpt lat="42.87692" lon="0.11816">
        <ele>2090.64</ele>
        <time>2018-02-27T15:02:36Z</time>
      </trkpt>
      <trkpt lat="42.87693" lon="0.11791">
        <ele>2087.83</ele>
        <time>2018-02-27T15:02:42Z</time>
      </trkpt>
      <trkpt lat="42.87695" lon="0.11766">
        <ele>2084.83</ele>
        <time>2018-02-27T15:02:47Z</time>
      </trkpt>
      <trkpt lat="42.87703" lon="0.1174">
        <ele>2081.56</ele>
        <time>2018-02-27T15:02:53Z</time>
      </trkpt>
      <trkpt lat="42.87712" lon="0.11714">
        <ele>2078.83</ele>
        <time>2018-02-27T15:02:59Z</time>
      </trkpt>
      <trkpt lat="42.87728" lon="0.11695">
        <ele>2075.15</ele>
        <time>2018-02-27T15:03:05Z</time>
      </trkpt>
      <trkpt lat="42.87743" lon="0.11675">
        <ele>2070.95</ele>
        <time>2018-02-27T15:03:09Z</time>
      </trkpt>
      <trkpt lat="42.87726" lon="0.11656">
        <ele>2064.85</ele>
        <time>2018-02-27T15:03:20Z</time>
      </trkpt>
      <trkpt lat="42.87742" lon="0.11642">
        <ele>2057.95</ele>
        <time>2018-02-27T15:03:40Z</time>
      </trkpt>
      <trkpt lat="42.87752" lon="0.11621">
        <ele>2050.55</ele>
        <time>2018-02-27T15:04:01Z</time>
      </trkpt>
      <trkpt lat="42.87766" lon="0.11602">
        <ele>2048.55</ele>
        <time>2018-02-27T15:04:06Z</time>
      </trkpt>
      <trkpt lat="42.87757" lon="0.11581">
        <ele>2045.52</ele>
        <time>2018-02-27T15:04:22Z</time>
      </trkpt>
      <trkpt lat="42.87752" lon="0.11556">
        <ele>2045.44</ele>
        <time>2018-02-27T15:04:35Z</time>
      </trkpt>
      <trkpt lat="42.87748" lon="0.11531">
        <ele>2044.52</ele>
        <time>2018-02-27T15:04:47Z</time>
      </trkpt>
      <trkpt lat="42.87742" lon="0.11507">
        <ele>2042.91</ele>
        <time>2018-02-27T15:05:02Z</time>
      </trkpt>
      <trkpt lat="42.87737" lon="0.11483">
        <ele>2043.61</ele>
        <time>2018-02-27T15:05:24Z</time>
      </trkpt>
      <trkpt lat="42.8774" lon="0.11458">
        <ele>2044.22</ele>
        <time>2018-02-27T15:05:49Z</time>
      </trkpt>
      <trkpt lat="42.87753" lon="0.1144">
        <ele>2044.53</ele>
        <time>2018-02-27T15:06:08Z</time>
      </trkpt>
      <trkpt lat="42.8776" lon="0.11416">
        <ele>2042.52</ele>
        <time>2018-02-27T15:06:23Z</time>
      </trkpt>
      <trkpt lat="42.8776" lon="0.11391">
        <ele>2043.82</ele>
        <time>2018-02-27T15:06:46Z</time>
      </trkpt>
      <trkpt lat="42.87752" lon="0.11366">
        <ele>2043.55</ele>
        <time>2018-02-27T15:06:56Z</time>
      </trkpt>
      <trkpt lat="42.87739" lon="0.11347">
        <ele>2044.52</ele>
        <time>2018-02-27T15:07:15Z</time>
      </trkpt>
      <trkpt lat="42.87729" lon="0.11325">
        <ele>2047.22</ele>
        <time>2018-02-27T15:07:37Z</time>
      </trkpt>
      <trkpt lat="42.87722" lon="0.11302">
        <ele>2043.82</ele>
        <time>2018-02-27T15:08:06Z</time>
      </trkpt>
      <trkpt lat="42.87716" lon="0.11278">
        <ele>2047.61</ele>
        <time>2018-02-27T15:08:41Z</time>
      </trkpt>
      <trkpt lat="42.87712" lon="0.11254">
        <ele>2048.5</ele>
        <time>2018-02-27T15:10:36Z</time>
      </trkpt>
      <trkpt lat="42.87727" lon="0.1124">
        <ele>2049.5</ele>
        <time>2018-02-27T15:14:10Z</time>
      </trkpt>
      <trkpt lat="42.87746" lon="0.11234">
        <ele>2042.85</ele>
        <time>2018-02-27T15:14:21Z</time>
      </trkpt>
      <trkpt lat="42.87746" lon="0.11206">
        <ele>2033.38</ele>
        <time>2018-02-27T15:14:26Z</time>
      </trkpt>
      <trkpt lat="42.87753" lon="0.1118">
        <ele>2030.94</ele>
        <time>2018-02-27T15:14:29Z</time>
      </trkpt>
      <trkpt lat="42.87755" lon="0.11155">
        <ele>2026.62</ele>
        <time>2018-02-27T15:14:37Z</time>
      </trkpt>
      <trkpt lat="42.87757" lon="0.11131">
        <ele>2022.82</ele>
        <time>2018-02-27T15:14:53Z</time>
      </trkpt>
      <trkpt lat="42.87775" lon="0.11115">
        <ele>2020.61</ele>
        <time>2018-02-27T15:15:01Z</time>
      </trkpt>
      <trkpt lat="42.87786" lon="0.1109">
        <ele>2015.95</ele>
        <time>2018-02-27T15:15:06Z</time>
      </trkpt>
      <trkpt lat="42.87801" lon="0.11073">
        <ele>2010.95</ele>
        <time>2018-02-27T15:15:11Z</time>
      </trkpt>
      <trkpt lat="42.87817" lon="0.11055">
        <ele>2006.95</ele>
        <time>2018-02-27T15:15:15Z</time>
      </trkpt>
      <trkpt lat="42.87836" lon="0.11042">
        <ele>2002.92</ele>
        <time>2018-02-27T15:15:21Z</time>
      </trkpt>
      <trkpt lat="42.87853" lon="0.11033">
        <ele>1996.95</ele>
        <time>2018-02-27T15:15:27Z</time>
      </trkpt>
      <trkpt lat="42.87872" lon="0.11043">
        <ele>1991.15</ele>
        <time>2018-02-27T15:15:34Z</time>
      </trkpt>
      <trkpt lat="42.87891" lon="0.11045">
        <ele>1982.28</ele>
        <time>2018-02-27T15:15:40Z</time>
      </trkpt>
      <trkpt lat="42.87911" lon="0.11047">
        <ele>1971.25</ele>
        <time>2018-02-27T15:15:48Z</time>
      </trkpt>
      <trkpt lat="42.87928" lon="0.1106">
        <ele>1958</ele>
        <time>2018-02-27T15:15:55Z</time>
      </trkpt>
      <trkpt lat="42.87949" lon="0.11055">
        <ele>1947.76</ele>
        <time>2018-02-27T15:16:00Z</time>
      </trkpt>
      <trkpt lat="42.87953" lon="0.11081">
        <ele>1943.06</ele>
        <time>2018-02-27T15:16:03Z</time>
      </trkpt>
      <trkpt lat="42.87966" lon="0.11104">
        <ele>1933.64</ele>
        <time>2018-02-27T15:16:10Z</time>
      </trkpt>
      <trkpt lat="42.87985" lon="0.11097">
        <ele>1925.07</ele>
        <time>2018-02-27T15:16:16Z</time>
      </trkpt>
      <trkpt lat="42.87995" lon="0.11073">
        <ele>1899.95</ele>
        <time>2018-02-27T15:19:47Z</time>
      </trkpt>
      <trkpt lat="42.88012" lon="0.11062">
        <ele>1897.62</ele>
        <time>2018-02-27T15:19:51Z</time>
      </trkpt>
      <trkpt lat="42.88031" lon="0.11049">
        <ele>1892.97</ele>
        <time>2018-02-27T15:19:55Z</time>
      </trkpt>
      <trkpt lat="42.8805" lon="0.11041">
        <ele>1890.83</ele>
        <time>2018-02-27T15:19:59Z</time>
      </trkpt>
      <trkpt lat="42.88069" lon="0.11031">
        <ele>1886.63</ele>
        <time>2018-02-27T15:20:04Z</time>
      </trkpt>
      <trkpt lat="42.88088" lon="0.11022">
        <ele>1883.86</ele>
        <time>2018-02-27T15:20:10Z</time>
      </trkpt>
      <trkpt lat="42.88106" lon="0.11029">
        <ele>1880.85</ele>
        <time>2018-02-27T15:20:16Z</time>
      </trkpt>
      <trkpt lat="42.88119" lon="0.11047">
        <ele>1873.92</ele>
        <time>2018-02-27T15:20:25Z</time>
      </trkpt>
      <trkpt lat="42.8814" lon="0.11038">
        <ele>1868.33</ele>
        <time>2018-02-27T15:20:30Z</time>
      </trkpt>
      <trkpt lat="42.88158" lon="0.11021">
        <ele>1860.09</ele>
        <time>2018-02-27T15:20:34Z</time>
      </trkpt>
      <trkpt lat="42.88179" lon="0.11028">
        <ele>1848.13</ele>
        <time>2018-02-27T15:21:00Z</time>
      </trkpt>
      <trkpt lat="42.88198" lon="0.11035">
        <ele>1829.07</ele>
        <time>2018-02-27T15:21:15Z</time>
      </trkpt>
      <trkpt lat="42.88217" lon="0.11032">
        <ele>1814.63</ele>
        <time>2018-02-27T15:21:55Z</time>
      </trkpt>
      <trkpt lat="42.88227" lon="0.11057">
        <ele>1810.01</ele>
        <time>2018-02-27T15:22:04Z</time>
      </trkpt>
      <trkpt lat="42.88234" lon="0.11085">
        <ele>1802.83</ele>
        <time>2018-02-27T15:22:11Z</time>
      </trkpt>
      <trkpt lat="42.88231" lon="0.1111">
        <ele>1798.62</ele>
        <time>2018-02-27T15:22:18Z</time>
      </trkpt>
      <trkpt lat="42.88227" lon="0.11136">
        <ele>1794.62</ele>
        <time>2018-02-27T15:22:25Z</time>
      </trkpt>
      <trkpt lat="42.88225" lon="0.1116">
        <ele>1788.52</ele>
        <time>2018-02-27T15:22:44Z</time>
      </trkpt>
      <trkpt lat="42.8824" lon="0.11174">
        <ele>1782.92</ele>
        <time>2018-02-27T15:22:51Z</time>
      </trkpt>
      <trkpt lat="42.88262" lon="0.11165">
        <ele>1777.37</ele>
        <time>2018-02-27T15:22:54Z</time>
      </trkpt>
      <trkpt lat="42.88286" lon="0.11171">
        <ele>1772.08</ele>
        <time>2018-02-27T15:22:57Z</time>
      </trkpt>
      <trkpt lat="42.88307" lon="0.1118">
        <ele>1768.95</ele>
        <time>2018-02-27T15:23:00Z</time>
      </trkpt>
      <trkpt lat="42.88325" lon="0.11182">
        <ele>1767.62</ele>
        <time>2018-02-27T15:23:03Z</time>
      </trkpt>
      <trkpt lat="42.88345" lon="0.11179">
        <ele>1765.13</ele>
        <time>2018-02-27T15:23:07Z</time>
      </trkpt>
      <trkpt lat="42.88364" lon="0.11161">
        <ele>1760.74</ele>
        <time>2018-02-27T15:23:11Z</time>
      </trkpt>
      <trkpt lat="42.88385" lon="0.11153">
        <ele>1757.67</ele>
        <time>2018-02-27T15:23:14Z</time>
      </trkpt>
      <trkpt lat="42.884" lon="0.11132">
        <ele>1756.61</ele>
        <time>2018-02-27T15:23:18Z</time>
      </trkpt>
      <trkpt lat="42.8841" lon="0.11107">
        <ele>1753.83</ele>
        <time>2018-02-27T15:23:24Z</time>
      </trkpt>
      <trkpt lat="42.88427" lon="0.1109">
        <ele>1752.82</ele>
        <time>2018-02-27T15:23:29Z</time>
      </trkpt>
      <trkpt lat="42.88444" lon="0.11078">
        <ele>1751.53</ele>
        <time>2018-02-27T15:23:36Z</time>
      </trkpt>
      <trkpt lat="42.88459" lon="0.11064">
        <ele>1740.6</ele>
        <time>2018-02-27T15:27:41Z</time>
      </trkpt>
      <trkpt lat="42.88473" lon="0.11047">
        <ele>1741.52</ele>
        <time>2018-02-27T15:27:51Z</time>
      </trkpt>
      <trkpt lat="42.88484" lon="0.11024">
        <ele>1741.52</ele>
        <time>2018-02-27T15:27:58Z</time>
      </trkpt>
      <trkpt lat="42.88501" lon="0.11003">
        <ele>1739.62</ele>
        <time>2018-02-27T15:28:05Z</time>
      </trkpt>
      <trkpt lat="42.88516" lon="0.10987">
        <ele>1737.62</ele>
        <time>2018-02-27T15:28:10Z</time>
      </trkpt>
      <trkpt lat="42.88529" lon="0.1097">
        <ele>1736.82</ele>
        <time>2018-02-27T15:28:16Z</time>
      </trkpt>
      <trkpt lat="42.88542" lon="0.10953">
        <ele>1735.55</ele>
        <time>2018-02-27T15:28:22Z</time>
      </trkpt>
      <trkpt lat="42.88557" lon="0.10938">
        <ele>1734.52</ele>
        <time>2018-02-27T15:28:29Z</time>
      </trkpt>
      <trkpt lat="42.88573" lon="0.10923">
        <ele>1732.55</ele>
        <time>2018-02-27T15:28:36Z</time>
      </trkpt>
      <trkpt lat="42.88584" lon="0.10902">
        <ele>1731.52</ele>
        <time>2018-02-27T15:28:45Z</time>
      </trkpt>
      <trkpt lat="42.88602" lon="0.10895">
        <ele>1730.61</ele>
        <time>2018-02-27T15:28:51Z</time>
      </trkpt>
      <trkpt lat="42.88621" lon="0.10884">
        <ele>1728.62</ele>
        <time>2018-02-27T15:28:55Z</time>
      </trkpt>
      <trkpt lat="42.88641" lon="0.10887">
        <ele>1727.52</ele>
        <time>2018-02-27T15:29:01Z</time>
      </trkpt>
      <trkpt lat="42.88659" lon="0.10882">
        <ele>1724.52</ele>
        <time>2018-02-27T15:29:30Z</time>
      </trkpt>
      <trkpt lat="42.88681" lon="0.10874">
        <ele>1720.88</ele>
        <time>2018-02-27T15:29:38Z</time>
      </trkpt>
      <trkpt lat="42.88699" lon="0.10869">
        <ele>1717.82</ele>
        <time>2018-02-27T15:29:54Z</time>
      </trkpt>
      <trkpt lat="42.88716" lon="0.10859">
        <ele>1716.53</ele>
        <time>2018-02-27T15:30:02Z</time>
      </trkpt>
      <trkpt lat="42.88733" lon="0.1085">
        <ele>1713.85</ele>
        <time>2018-02-27T15:30:14Z</time>
      </trkpt>
      <trkpt lat="42.88753" lon="0.10845">
        <ele>1710.54</ele>
        <time>2018-02-27T15:30:21Z</time>
      </trkpt>
      <trkpt lat="42.88768" lon="0.10832">
        <ele>1706.82</ele>
        <time>2018-02-27T15:30:35Z</time>
      </trkpt>
      <trkpt lat="42.88786" lon="0.10826">
        <ele>1696.56</ele>
        <time>2018-02-27T15:31:28Z</time>
      </trkpt>
      <trkpt lat="42.88804" lon="0.10816">
        <ele>1695.53</ele>
        <time>2018-02-27T15:31:34Z</time>
      </trkpt>
      <trkpt lat="42.88822" lon="0.10806">
        <ele>1693.52</ele>
        <time>2018-02-27T15:31:45Z</time>
      </trkpt>
      <trkpt lat="42.88842" lon="0.10799">
        <ele>1693.31</ele>
        <time>2018-02-27T15:31:51Z</time>
      </trkpt>
      <trkpt lat="42.88859" lon="0.10791">
        <ele>1691.82</ele>
        <time>2018-02-27T15:31:57Z</time>
      </trkpt>
      <trkpt lat="42.88877" lon="0.10785">
        <ele>1689.92</ele>
        <time>2018-02-27T15:32:02Z</time>
      </trkpt>
      <trkpt lat="42.88897" lon="0.1078">
        <ele>1687.53</ele>
        <time>2018-02-27T15:32:07Z</time>
      </trkpt>
      <trkpt lat="42.88918" lon="0.10768">
        <ele>1686.61</ele>
        <time>2018-02-27T15:32:15Z</time>
      </trkpt>
      <trkpt lat="42.88933" lon="0.1075">
        <ele>1683.91</ele>
        <time>2018-02-27T15:32:20Z</time>
      </trkpt>
      <trkpt lat="42.88951" lon="0.1074">
        <ele>1681.82</ele>
        <time>2018-02-27T15:32:31Z</time>
      </trkpt>
      <trkpt lat="42.88969" lon="0.10739">
        <ele>1677.64</ele>
        <time>2018-02-27T15:32:39Z</time>
      </trkpt>
      <trkpt lat="42.88988" lon="0.10739">
        <ele>1673.83</ele>
        <time>2018-02-27T15:32:47Z</time>
      </trkpt>
      <trkpt lat="42.89007" lon="0.10749">
        <ele>1671.55</ele>
        <time>2018-02-27T15:32:53Z</time>
      </trkpt>
      <trkpt lat="42.89026" lon="0.10748">
        <ele>1669.61</ele>
        <time>2018-02-27T15:32:59Z</time>
      </trkpt>
      <trkpt lat="42.89046" lon="0.10746">
        <ele>1665.95</ele>
        <time>2018-02-27T15:33:04Z</time>
      </trkpt>
      <trkpt lat="42.89066" lon="0.10736">
        <ele>1663.83</ele>
        <time>2018-02-27T15:33:09Z</time>
      </trkpt>
      <trkpt lat="42.8908" lon="0.10721">
        <ele>1662.52</ele>
        <time>2018-02-27T15:33:15Z</time>
      </trkpt>
      <trkpt lat="42.89101" lon="0.10721">
        <ele>1655.83</ele>
        <time>2018-02-27T15:35:47Z</time>
      </trkpt>
      <trkpt lat="42.89122" lon="0.10718">
        <ele>1655.52</ele>
        <time>2018-02-27T15:35:52Z</time>
      </trkpt>
      <trkpt lat="42.8914" lon="0.10711">
        <ele>1653.82</ele>
        <time>2018-02-27T15:35:59Z</time>
      </trkpt>
      <trkpt lat="42.8916" lon="0.10708">
        <ele>1652.61</ele>
        <time>2018-02-27T15:36:07Z</time>
      </trkpt>
      <trkpt lat="42.89178" lon="0.10707">
        <ele>1649.64</ele>
        <time>2018-02-27T15:36:15Z</time>
      </trkpt>
      <trkpt lat="42.89199" lon="0.10711">
        <ele>1645.62</ele>
        <time>2018-02-27T15:36:23Z</time>
      </trkpt>
      <trkpt lat="42.8922" lon="0.10714">
        <ele>1641.83</ele>
        <time>2018-02-27T15:36:31Z</time>
      </trkpt>
      <trkpt lat="42.89238" lon="0.10717">
        <ele>1640.74</ele>
        <time>2018-02-27T15:36:37Z</time>
      </trkpt>
      <trkpt lat="42.89257" lon="0.10718">
        <ele>1638.55</ele>
        <time>2018-02-27T15:36:44Z</time>
      </trkpt>
      <trkpt lat="42.89276" lon="0.10725">
        <ele>1635.61</ele>
        <time>2018-02-27T15:36:51Z</time>
      </trkpt>
      <trkpt lat="42.89295" lon="0.10726">
        <ele>1632.83</ele>
        <time>2018-02-27T15:36:58Z</time>
      </trkpt>
      <trkpt lat="42.89313" lon="0.1073">
        <ele>1630.61</ele>
        <time>2018-02-27T15:37:05Z</time>
      </trkpt>
      <trkpt lat="42.89331" lon="0.10736">
        <ele>1629.53</ele>
        <time>2018-02-27T15:37:10Z</time>
      </trkpt>
      <trkpt lat="42.89345" lon="0.10753">
        <ele>1627.82</ele>
        <time>2018-02-27T15:37:17Z</time>
      </trkpt>
      <trkpt lat="42.89365" lon="0.10757">
        <ele>1620.82</ele>
        <time>2018-02-27T15:39:02Z</time>
      </trkpt>
      <trkpt lat="42.89385" lon="0.10753">
        <ele>1617.86</ele>
        <time>2018-02-27T15:39:09Z</time>
      </trkpt>
      <trkpt lat="42.89405" lon="0.10756">
        <ele>1615.61</ele>
        <time>2018-02-27T15:39:16Z</time>
      </trkpt>
      <trkpt lat="42.89423" lon="0.10752">
        <ele>1614.53</ele>
        <time>2018-02-27T15:39:22Z</time>
      </trkpt>
      <trkpt lat="42.89444" lon="0.10748">
        <ele>1611.85</ele>
        <time>2018-02-27T15:39:30Z</time>
      </trkpt>
      <trkpt lat="42.89464" lon="0.10746">
        <ele>1609.85</ele>
        <time>2018-02-27T15:39:36Z</time>
      </trkpt>
      <trkpt lat="42.89482" lon="0.10749">
        <ele>1607.64</ele>
        <time>2018-02-27T15:39:42Z</time>
      </trkpt>
      <trkpt lat="42.895" lon="0.10755">
        <ele>1604.62</ele>
        <time>2018-02-27T15:39:48Z</time>
      </trkpt>
      <trkpt lat="42.89521" lon="0.10756">
        <ele>1600.92</ele>
        <time>2018-02-27T15:39:56Z</time>
      </trkpt>
      <trkpt lat="42.89544" lon="0.10744">
        <ele>1598.01</ele>
        <time>2018-02-27T15:40:00Z</time>
      </trkpt>
      <trkpt lat="42.89563" lon="0.10748">
        <ele>1595.02</ele>
        <time>2018-02-27T15:40:03Z</time>
      </trkpt>
      <trkpt lat="42.89584" lon="0.10754">
        <ele>1589.22</ele>
        <time>2018-02-27T15:40:09Z</time>
      </trkpt>
      <trkpt lat="42.89606" lon="0.10747">
        <ele>1586.83</ele>
        <time>2018-02-27T15:40:14Z</time>
      </trkpt>
      <trkpt lat="42.89621" lon="0.10734">
        <ele>1583.95</ele>
        <time>2018-02-27T15:40:17Z</time>
      </trkpt>
      <trkpt lat="42.89636" lon="0.10718">
        <ele>1580.94</ele>
        <time>2018-02-27T15:40:21Z</time>
      </trkpt>
      <trkpt lat="42.89657" lon="0.10722">
        <ele>1573.85</ele>
        <time>2018-02-27T15:40:49Z</time>
      </trkpt>
      <trkpt lat="42.89676" lon="0.10723">
        <ele>1571.62</ele>
        <time>2018-02-27T15:40:54Z</time>
      </trkpt>
      <trkpt lat="42.89694" lon="0.10721">
        <ele>1568.83</ele>
        <time>2018-02-27T15:41:00Z</time>
      </trkpt>
      <trkpt lat="42.89714" lon="0.10721">
        <ele>1563.83</ele>
        <time>2018-02-27T15:41:20Z</time>
      </trkpt>
      <trkpt lat="42.89736" lon="0.10715">
        <ele>1560.86</ele>
        <time>2018-02-27T15:41:25Z</time>
      </trkpt>
      <trkpt lat="42.89754" lon="0.10706">
        <ele>1558.55</ele>
        <time>2018-02-27T15:41:32Z</time>
      </trkpt>
      <trkpt lat="42.8977" lon="0.10688">
        <ele>1551.61</ele>
        <time>2018-02-27T15:42:12Z</time>
      </trkpt>
      <trkpt lat="42.89787" lon="0.1067">
        <ele>1549.62</ele>
        <time>2018-02-27T15:42:19Z</time>
      </trkpt>
      <trkpt lat="42.89803" lon="0.10657">
        <ele>1548.52</ele>
        <time>2018-02-27T15:42:25Z</time>
      </trkpt>
      <trkpt lat="42.89821" lon="0.1064">
        <ele>1544.94</ele>
        <time>2018-02-27T15:42:30Z</time>
      </trkpt>
      <trkpt lat="42.8984" lon="0.10628">
        <ele>1542.82</ele>
        <time>2018-02-27T15:42:36Z</time>
      </trkpt>
      <trkpt lat="42.8986" lon="0.10619">
        <ele>1540.52</ele>
        <time>2018-02-27T15:42:43Z</time>
      </trkpt>
      <trkpt lat="42.89881" lon="0.10614">
        <ele>1539.52</ele>
        <time>2018-02-27T15:42:48Z</time>
      </trkpt>
      <trkpt lat="42.89869" lon="0.10595">
        <ele>1537.55</ele>
        <time>2018-02-27T15:43:06Z</time>
      </trkpt>
      <trkpt lat="42.89883" lon="0.10575">
        <ele>1532.91</ele>
        <time>2018-02-27T15:43:19Z</time>
      </trkpt>
      <trkpt lat="42.89896" lon="0.10558">
        <ele>1527.53</ele>
        <time>2018-02-27T15:43:35Z</time>
      </trkpt>
      <trkpt lat="42.89909" lon="0.10537">
        <ele>1521.82</ele>
        <time>2018-02-27T15:44:10Z</time>
      </trkpt>
      <trkpt lat="42.89918" lon="0.10507">
        <ele>1519.01</ele>
        <time>2018-02-27T15:44:13Z</time>
      </trkpt>
      <trkpt lat="42.89934" lon="0.10494">
        <ele>1517.53</ele>
        <time>2018-02-27T15:44:27Z</time>
      </trkpt>
      <trkpt lat="42.89952" lon="0.10487">
        <ele>1514.64</ele>
        <time>2018-02-27T15:44:32Z</time>
      </trkpt>
      <trkpt lat="42.89971" lon="0.10482">
        <ele>1511.64</ele>
        <time>2018-02-27T15:44:37Z</time>
      </trkpt>
      <trkpt lat="42.89989" lon="0.10479">
        <ele>1509.61</ele>
        <time>2018-02-27T15:44:42Z</time>
      </trkpt>
      <trkpt lat="42.90008" lon="0.10463">
        <ele>1507.85</ele>
        <time>2018-02-27T15:44:48Z</time>
      </trkpt>
      <trkpt lat="42.90012" lon="0.10435">
        <ele>1504.86</ele>
        <time>2018-02-27T15:44:52Z</time>
      </trkpt>
      <trkpt lat="42.90032" lon="0.10432">
        <ele>1500.92</ele>
        <time>2018-02-27T15:44:57Z</time>
      </trkpt>
      <trkpt lat="42.90051" lon="0.10424">
        <ele>1497.83</ele>
        <time>2018-02-27T15:45:02Z</time>
      </trkpt>
      <trkpt lat="42.90074" lon="0.1041">
        <ele>1493.95</ele>
        <time>2018-02-27T15:45:06Z</time>
      </trkpt>
      <trkpt lat="42.90095" lon="0.10408">
        <ele>1491.86</ele>
        <time>2018-02-27T15:45:09Z</time>
      </trkpt>
      <trkpt lat="42.90114" lon="0.10402">
        <ele>1489.92</ele>
        <time>2018-02-27T15:45:12Z</time>
      </trkpt>
      <trkpt lat="42.90135" lon="0.10395">
        <ele>1488.77</ele>
        <time>2018-02-27T15:45:15Z</time>
      </trkpt>
      <trkpt lat="42.9015" lon="0.10375">
        <ele>1486.65</ele>
        <time>2018-02-27T15:45:18Z</time>
      </trkpt>
      <trkpt lat="42.90168" lon="0.10357">
        <ele>1484.85</ele>
        <time>2018-02-27T15:45:21Z</time>
      </trkpt>
      <trkpt lat="42.90191" lon="0.10349">
        <ele>1482.65</ele>
        <time>2018-02-27T15:45:24Z</time>
      </trkpt>
      <trkpt lat="42.9021" lon="0.10344">
        <ele>1480.85</ele>
        <time>2018-02-27T15:45:27Z</time>
      </trkpt>
      <trkpt lat="42.90229" lon="0.10341">
        <ele>1479.61</ele>
        <time>2018-02-27T15:45:31Z</time>
      </trkpt>
      <trkpt lat="42.90247" lon="0.10344">
        <ele>1479.52</ele>
        <time>2018-02-27T15:45:36Z</time>
      </trkpt>
      <trkpt lat="42.90266" lon="0.10346">
        <ele>1478.59</ele>
        <time>2018-02-27T15:45:44Z</time>
      </trkpt>
      <trkpt lat="42.90285" lon="0.10344">
        <ele>1476.52</ele>
        <time>2018-02-27T15:45:53Z</time>
      </trkpt>
      <trkpt lat="42.90303" lon="0.1033">
        <ele>1474.82</ele>
        <time>2018-02-27T15:46:00Z</time>
      </trkpt>
      <trkpt lat="42.9032" lon="0.10317">
        <ele>1473.55</ele>
        <time>2018-02-27T15:46:05Z</time>
      </trkpt>
      <trkpt lat="42.90335" lon="0.10302">
        <ele>1471.85</ele>
        <time>2018-02-27T15:46:09Z</time>
      </trkpt>
      <trkpt lat="42.9035" lon="0.10284">
        <ele>1470.61</ele>
        <time>2018-02-27T15:48:47Z</time>
      </trkpt>
      <trkpt lat="42.90343" lon="0.1026">
        <ele>1469.44</ele>
        <time>2018-02-27T15:49:53Z</time>
      </trkpt>
      <trkpt lat="42.9035" lon="0.10237">
        <ele>1465.61</ele>
        <time>2018-02-27T15:50:14Z</time>
      </trkpt>
    </trkseg>
  </trk>
</gpx>